<?xml version="1.0" encoding="UTF-8" standalone="no" ?>
<gpx xmlns="http://www.topografix.com/GPX/1/1" xmlns:xsi="http://www.w3.org/2001/XMLSchema-instance" xsi:schemaLocation="http://www.topografix.com/GPX/1/1 http://www.topografix.com/GPX/1/1/gpx.xsd" version="1.1" creator="VisuGPX - https://www.visugpx.com">
  <metadata>
    <name>GT Strava Games - Secteur Rachais</name>
  </metadata>
  <trk>
    <name><![CDATA[Parcours Bastille - Rachais]]></name>
    <trkseg>
      <trkpt lat="45.19778" lon="5.73151">
        <ele>227.3</ele>
        <time>2020-11-20T14:13:48.000Z</time>
        <extensions>
          <visugpx:TrkExtension xmlns:visugpx="https://www.visugpx.com/editgpx/">
            <visugpx:node>75</visugpx:node>
            </visugpx:TrkExtension>
        </extensions>
      </trkpt>
      <trkpt lat="45.19784" lon="5.73134">
        <ele>231.4</ele>
        <time>2020-11-20T14:14:06.478Z</time>
      </trkpt>
      <trkpt lat="45.19792" lon="5.73129">
        <ele>234</ele>
        <time>2020-11-20T14:14:18.533Z</time>
      </trkpt>
      <trkpt lat="45.19801" lon="5.73128">
        <ele>236.2</ele>
        <time>2020-11-20T14:14:30.984Z</time>
      </trkpt>
      <trkpt lat="45.19804" lon="5.73128">
        <ele>236.8</ele>
        <time>2020-11-20T14:14:35.121Z</time>
      </trkpt>
      <trkpt lat="45.19805" lon="5.73124">
        <ele>237.9</ele>
        <time>2020-11-20T14:14:39.246Z</time>
      </trkpt>
      <trkpt lat="45.19803" lon="5.73122">
        <ele>237.9</ele>
        <time>2020-11-20T14:14:40.121Z</time>
      </trkpt>
      <trkpt lat="45.19793" lon="5.73121">
        <ele>235.8</ele>
        <time>2020-11-20T14:14:41.404Z</time>
      </trkpt>
      <trkpt lat="45.19787" lon="5.73117">
        <ele>235.2</ele>
        <time>2020-11-20T14:14:42.253Z</time>
      </trkpt>
      <trkpt lat="45.19776" lon="5.73107">
        <ele>234.2</ele>
        <time>2020-11-20T14:14:43.925Z</time>
      </trkpt>
      <trkpt lat="45.19774" lon="5.73105">
        <ele>234</ele>
        <time>2020-11-20T14:14:44.238Z</time>
      </trkpt>
      <trkpt lat="45.19761" lon="5.73094">
        <ele>232</ele>
        <time>2020-11-20T14:14:46.175Z</time>
      </trkpt>
      <trkpt lat="45.1976" lon="5.73092">
        <ele>232</ele>
        <time>2020-11-20T14:14:46.793Z</time>
      </trkpt>
      <trkpt lat="45.1976" lon="5.73088">
        <ele>232.5</ele>
        <time>2020-11-20T14:14:50.681Z</time>
      </trkpt>
      <trkpt lat="45.19761" lon="5.73087">
        <ele>232.9</ele>
        <time>2020-11-20T14:14:52.368Z</time>
        <extensions>
          <visugpx:TrkExtension xmlns:visugpx="https://www.visugpx.com/editgpx/">
            <visugpx:node>1</visugpx:node>
            </visugpx:TrkExtension>
        </extensions>
      </trkpt>
      <trkpt lat="45.19762" lon="5.73087">
        <ele>233.3</ele>
        <time>2020-11-20T14:14:53.747Z</time>
      </trkpt>
      <trkpt lat="45.19771" lon="5.7309">
        <ele>235.5</ele>
        <time>2020-11-20T14:15:06.497Z</time>
      </trkpt>
      <trkpt lat="45.19777" lon="5.73093">
        <ele>236.8</ele>
        <time>2020-11-20T14:15:15.271Z</time>
      </trkpt>
      <trkpt lat="45.198" lon="5.73098">
        <ele>242.4</ele>
        <time>2020-11-20T14:15:47.361Z</time>
      </trkpt>
      <trkpt lat="45.19803" lon="5.73099">
        <ele>243.1</ele>
        <time>2020-11-20T14:15:51.611Z</time>
      </trkpt>
      <trkpt lat="45.19806" lon="5.73097">
        <ele>244.3</ele>
        <time>2020-11-20T14:15:56.182Z</time>
      </trkpt>
      <trkpt lat="45.19806" lon="5.73095">
        <ele>244.8</ele>
        <time>2020-11-20T14:15:58.126Z</time>
      </trkpt>
      <trkpt lat="45.19802" lon="5.73091">
        <ele>244.5</ele>
        <time>2020-11-20T14:15:58.724Z</time>
      </trkpt>
      <trkpt lat="45.19772" lon="5.7307">
        <ele>241.6</ele>
        <time>2020-11-20T14:16:03.006Z</time>
        <extensions>
          <visugpx:TrkExtension xmlns:visugpx="https://www.visugpx.com/editgpx/">
            <visugpx:node>2</visugpx:node>
            </visugpx:TrkExtension>
        </extensions>
      </trkpt>
      <trkpt lat="45.19753" lon="5.73057">
        <ele>241.2</ele>
        <time>2020-11-20T14:16:06.880Z</time>
      </trkpt>
      <trkpt lat="45.1975" lon="5.73052">
        <ele>242.4</ele>
        <time>2020-11-20T14:16:13.262Z</time>
      </trkpt>
      <trkpt lat="45.19753" lon="5.73051">
        <ele>243.6</ele>
        <time>2020-11-20T14:16:17.513Z</time>
      </trkpt>
      <trkpt lat="45.19797" lon="5.73064">
        <ele>250.7</ele>
        <time>2020-11-20T14:17:19.496Z</time>
      </trkpt>
      <trkpt lat="45.19798" lon="5.73063">
        <ele>251.3</ele>
        <time>2020-11-20T14:17:21.183Z</time>
      </trkpt>
      <trkpt lat="45.19796" lon="5.73058">
        <ele>252.4</ele>
        <time>2020-11-20T14:17:26.771Z</time>
      </trkpt>
      <trkpt lat="45.19775" lon="5.73044">
        <ele>251.7</ele>
        <time>2020-11-20T14:17:30.532Z</time>
        <extensions>
          <visugpx:TrkExtension xmlns:visugpx="https://www.visugpx.com/editgpx/">
            <visugpx:node>3</visugpx:node>
            </visugpx:TrkExtension>
        </extensions>
      </trkpt>
      <trkpt lat="45.19756" lon="5.73031">
        <ele>252.1</ele>
        <time>2020-11-20T14:17:39.660Z</time>
      </trkpt>
      <trkpt lat="45.19755" lon="5.73029">
        <ele>252.6</ele>
        <time>2020-11-20T14:17:42.043Z</time>
      </trkpt>
      <trkpt lat="45.19758" lon="5.73027">
        <ele>254</ele>
        <time>2020-11-20T14:17:46.614Z</time>
      </trkpt>
      <trkpt lat="45.19806" lon="5.73042">
        <ele>259.8</ele>
        <time>2020-11-20T14:18:42.040Z</time>
      </trkpt>
      <trkpt lat="45.19807" lon="5.7304">
        <ele>260.7</ele>
        <time>2020-11-20T14:18:44.423Z</time>
      </trkpt>
      <trkpt lat="45.19806" lon="5.73036">
        <ele>261.6</ele>
        <time>2020-11-20T14:18:48.548Z</time>
      </trkpt>
      <trkpt lat="45.19766" lon="5.73012">
        <ele>261.3</ele>
        <time>2020-11-20T14:19:02.590Z</time>
      </trkpt>
      <trkpt lat="45.19766" lon="5.73008">
        <ele>262.7</ele>
        <time>2020-11-20T14:19:06.477Z</time>
      </trkpt>
      <trkpt lat="45.19767" lon="5.73007">
        <ele>263.3</ele>
        <time>2020-11-20T14:19:08.164Z</time>
      </trkpt>
      <trkpt lat="45.19777" lon="5.7301">
        <ele>264</ele>
        <time>2020-11-20T14:19:15.435Z</time>
        <extensions>
          <visugpx:TrkExtension xmlns:visugpx="https://www.visugpx.com/editgpx/">
            <visugpx:node>4</visugpx:node>
            </visugpx:TrkExtension>
        </extensions>
      </trkpt>
      <trkpt lat="45.19811" lon="5.73023">
        <ele>266.6</ele>
        <time>2020-11-20T14:19:41.525Z</time>
      </trkpt>
      <trkpt lat="45.19812" lon="5.73022">
        <ele>267.1</ele>
        <time>2020-11-20T14:19:43.212Z</time>
      </trkpt>
      <trkpt lat="45.19813" lon="5.73019">
        <ele>268.1</ele>
        <time>2020-11-20T14:19:46.438Z</time>
      </trkpt>
      <trkpt lat="45.19791" lon="5.73005">
        <ele>268.3</ele>
        <time>2020-11-20T14:19:55.767Z</time>
      </trkpt>
      <trkpt lat="45.19775" lon="5.72989">
        <ele>272.4</ele>
        <time>2020-11-20T14:20:22.762Z</time>
      </trkpt>
      <trkpt lat="45.1976" lon="5.72971">
        <ele>278.6</ele>
        <time>2020-11-20T14:20:49.854Z</time>
      </trkpt>
      <trkpt lat="45.19694" lon="5.72858">
        <ele>293</ele>
        <time>2020-11-20T14:23:12.491Z</time>
      </trkpt>
      <trkpt lat="45.19692" lon="5.72852">
        <ele>293.8</ele>
        <time>2020-11-20T14:23:18.941Z</time>
      </trkpt>
      <trkpt lat="45.19694" lon="5.7285">
        <ele>295.2</ele>
        <time>2020-11-20T14:23:22.316Z</time>
      </trkpt>
      <trkpt lat="45.19697" lon="5.72852">
        <ele>296</ele>
        <time>2020-11-20T14:23:26.887Z</time>
      </trkpt>
      <trkpt lat="45.1971" lon="5.72865">
        <ele>298.2</ele>
        <time>2020-11-20T14:23:48.820Z</time>
      </trkpt>
      <trkpt lat="45.1972" lon="5.72872">
        <ele>300.8</ele>
        <time>2020-11-20T14:24:04.198Z</time>
      </trkpt>
      <trkpt lat="45.19729" lon="5.72878">
        <ele>303.3</ele>
        <time>2020-11-20T14:24:17.912Z</time>
        <extensions>
          <visugpx:TrkExtension xmlns:visugpx="https://www.visugpx.com/editgpx/">
            <visugpx:node>5</visugpx:node>
            </visugpx:TrkExtension>
        </extensions>
      </trkpt>
      <trkpt lat="45.19795" lon="5.72921">
        <ele>308</ele>
        <time>2020-11-20T14:25:08.162Z</time>
      </trkpt>
      <trkpt lat="45.19797" lon="5.7292">
        <ele>308.8</ele>
        <time>2020-11-20T14:25:11.087Z</time>
      </trkpt>
      <trkpt lat="45.19798" lon="5.72918">
        <ele>309.9</ele>
        <time>2020-11-20T14:25:13.470Z</time>
      </trkpt>
      <trkpt lat="45.19797" lon="5.72916">
        <ele>310.6</ele>
        <time>2020-11-20T14:25:15.853Z</time>
      </trkpt>
      <trkpt lat="45.19762" lon="5.72869">
        <ele>318.5</ele>
        <time>2020-11-20T14:26:22.308Z</time>
        <extensions>
          <visugpx:TrkExtension xmlns:visugpx="https://www.visugpx.com/editgpx/">
            <visugpx:node>6</visugpx:node>
            </visugpx:TrkExtension>
        </extensions>
      </trkpt>
      <trkpt lat="45.19744" lon="5.72845">
        <ele>318.4</ele>
        <time>2020-11-20T14:26:30.624Z</time>
      </trkpt>
      <trkpt lat="45.19744" lon="5.72841">
        <ele>319.5</ele>
        <time>2020-11-20T14:26:34.511Z</time>
      </trkpt>
      <trkpt lat="45.19751" lon="5.72842">
        <ele>322.2</ele>
        <time>2020-11-20T14:26:44.214Z</time>
      </trkpt>
      <trkpt lat="45.19763" lon="5.72852">
        <ele>323.7</ele>
        <time>2020-11-20T14:26:58.216Z</time>
      </trkpt>
      <trkpt lat="45.19811" lon="5.72883">
        <ele>326.9</ele>
        <time>2020-11-20T14:27:33.668Z</time>
      </trkpt>
      <trkpt lat="45.19812" lon="5.72882">
        <ele>327.6</ele>
        <time>2020-11-20T14:27:35.355Z</time>
      </trkpt>
      <trkpt lat="45.19812" lon="5.7288">
        <ele>328.5</ele>
        <time>2020-11-20T14:27:37.299Z</time>
      </trkpt>
      <trkpt lat="45.19784" lon="5.72844">
        <ele>333.7</ele>
        <time>2020-11-20T14:28:29.407Z</time>
        <extensions>
          <visugpx:TrkExtension xmlns:visugpx="https://www.visugpx.com/editgpx/">
            <visugpx:node>7</visugpx:node>
            </visugpx:TrkExtension>
        </extensions>
      </trkpt>
      <trkpt lat="45.19755" lon="5.72809">
        <ele>336</ele>
        <time>2020-11-20T14:28:54.951Z</time>
      </trkpt>
      <trkpt lat="45.19755" lon="5.72806">
        <ele>337.3</ele>
        <time>2020-11-20T14:28:57.867Z</time>
      </trkpt>
      <trkpt lat="45.19758" lon="5.72805">
        <ele>339.1</ele>
        <time>2020-11-20T14:29:02.117Z</time>
      </trkpt>
      <trkpt lat="45.19784" lon="5.72824">
        <ele>342.2</ele>
        <time>2020-11-20T14:29:30.999Z</time>
      </trkpt>
      <trkpt lat="45.19797" lon="5.72832">
        <ele>343.3</ele>
        <time>2020-11-20T14:29:41.816Z</time>
      </trkpt>
      <trkpt lat="45.19823" lon="5.72848">
        <ele>346.1</ele>
        <time>2020-11-20T14:30:07.863Z</time>
      </trkpt>
      <trkpt lat="45.19825" lon="5.72848">
        <ele>346.8</ele>
        <time>2020-11-20T14:30:10.621Z</time>
      </trkpt>
      <trkpt lat="45.19826" lon="5.72848">
        <ele>347.2</ele>
        <time>2020-11-20T14:30:12.000Z</time>
      </trkpt>
      <trkpt lat="45.19826" lon="5.72846">
        <ele>348.1</ele>
        <time>2020-11-20T14:30:13.944Z</time>
      </trkpt>
      <trkpt lat="45.19821" lon="5.72842">
        <ele>348.2</ele>
        <time>2020-11-20T14:30:16.386Z</time>
        <extensions>
          <visugpx:TrkExtension xmlns:visugpx="https://www.visugpx.com/editgpx/">
            <visugpx:node>8</visugpx:node>
            </visugpx:TrkExtension>
        </extensions>
      </trkpt>
      <trkpt lat="45.19793" lon="5.72815">
        <ele>350.9</ele>
        <time>2020-11-20T14:30:42.677Z</time>
      </trkpt>
      <trkpt lat="45.19791" lon="5.72811">
        <ele>352.1</ele>
        <time>2020-11-20T14:30:47.443Z</time>
      </trkpt>
      <trkpt lat="45.19792" lon="5.7281">
        <ele>353.1</ele>
        <time>2020-11-20T14:30:49.130Z</time>
      </trkpt>
      <trkpt lat="45.19814" lon="5.72826">
        <ele>353.8</ele>
        <time>2020-11-20T14:31:01.065Z</time>
        <extensions>
          <visugpx:TrkExtension xmlns:visugpx="https://www.visugpx.com/editgpx/">
            <visugpx:node>9</visugpx:node>
            </visugpx:TrkExtension>
        </extensions>
      </trkpt>
      <trkpt lat="45.19816" lon="5.72828">
        <ele>353.4</ele>
        <time>2020-11-20T14:31:01.378Z</time>
      </trkpt>
      <trkpt lat="45.19834" lon="5.72836">
        <ele>355.9</ele>
        <time>2020-11-20T14:31:27.060Z</time>
      </trkpt>
      <trkpt lat="45.19835" lon="5.72834">
        <ele>357.2</ele>
        <time>2020-11-20T14:31:29.443Z</time>
      </trkpt>
      <trkpt lat="45.19835" lon="5.72832">
        <ele>358.4</ele>
        <time>2020-11-20T14:31:31.387Z</time>
      </trkpt>
      <trkpt lat="45.19829" lon="5.72827">
        <ele>359.4</ele>
        <time>2020-11-20T14:31:40.983Z</time>
        <extensions>
          <visugpx:TrkExtension xmlns:visugpx="https://www.visugpx.com/editgpx/">
            <visugpx:node>10</visugpx:node>
            </visugpx:TrkExtension>
        </extensions>
      </trkpt>
      <trkpt lat="45.19817" lon="5.72818">
        <ele>360</ele>
        <time>2020-11-20T14:31:49.138Z</time>
      </trkpt>
      <trkpt lat="45.19816" lon="5.72813">
        <ele>362.6</ele>
        <time>2020-11-20T14:31:54.189Z</time>
      </trkpt>
      <trkpt lat="45.19819" lon="5.72813">
        <ele>364</ele>
        <time>2020-11-20T14:31:58.327Z</time>
      </trkpt>
      <trkpt lat="45.19827" lon="5.72819">
        <ele>363.8</ele>
        <time>2020-11-20T14:31:59.929Z</time>
        <extensions>
          <visugpx:TrkExtension xmlns:visugpx="https://www.visugpx.com/editgpx/">
            <visugpx:node>11</visugpx:node>
            </visugpx:TrkExtension>
        </extensions>
      </trkpt>
      <trkpt lat="45.19844" lon="5.72831">
        <ele>362</ele>
        <time>2020-11-20T14:32:02.360Z</time>
      </trkpt>
      <trkpt lat="45.19847" lon="5.7283">
        <ele>363.6</ele>
        <time>2020-11-20T14:32:06.610Z</time>
      </trkpt>
      <trkpt lat="45.19846" lon="5.72826">
        <ele>366</ele>
        <time>2020-11-20T14:32:10.734Z</time>
      </trkpt>
      <trkpt lat="45.19828" lon="5.72807">
        <ele>372.1</ele>
        <time>2020-11-20T14:32:41.673Z</time>
        <extensions>
          <visugpx:TrkExtension xmlns:visugpx="https://www.visugpx.com/editgpx/">
            <visugpx:node>12</visugpx:node>
            </visugpx:TrkExtension>
        </extensions>
      </trkpt>
      <trkpt lat="45.19823" lon="5.72802">
        <ele>372.9</ele>
        <time>2020-11-20T14:32:49.798Z</time>
      </trkpt>
      <trkpt lat="45.19798" lon="5.7278">
        <ele>372.6</ele>
        <time>2020-11-20T14:32:55.829Z</time>
      </trkpt>
      <trkpt lat="45.19798" lon="5.72776">
        <ele>374.8</ele>
        <time>2020-11-20T14:32:59.717Z</time>
      </trkpt>
      <trkpt lat="45.198" lon="5.72775">
        <ele>376.6</ele>
        <time>2020-11-20T14:33:02.641Z</time>
      </trkpt>
      <trkpt lat="45.19828" lon="5.72794">
        <ele>380.6</ele>
        <time>2020-11-20T14:33:42.802Z</time>
        <extensions>
          <visugpx:TrkExtension xmlns:visugpx="https://www.visugpx.com/editgpx/">
            <visugpx:node>13</visugpx:node>
            </visugpx:TrkExtension>
        </extensions>
      </trkpt>
      <trkpt lat="45.19843" lon="5.72804">
        <ele>379.6</ele>
        <time>2020-11-20T14:33:44.843Z</time>
      </trkpt>
      <trkpt lat="45.19845" lon="5.72804">
        <ele>380.2</ele>
        <time>2020-11-20T14:33:47.602Z</time>
      </trkpt>
      <trkpt lat="45.19846" lon="5.72802">
        <ele>381.8</ele>
        <time>2020-11-20T14:33:49.985Z</time>
      </trkpt>
      <trkpt lat="45.19823" lon="5.72779">
        <ele>387.6</ele>
        <time>2020-11-20T14:34:28.790Z</time>
        <extensions>
          <visugpx:TrkExtension xmlns:visugpx="https://www.visugpx.com/editgpx/">
            <visugpx:node>14</visugpx:node>
            </visugpx:TrkExtension>
        </extensions>
      </trkpt>
      <trkpt lat="45.19822" lon="5.72778">
        <ele>387.6</ele>
        <time>2020-11-20T14:34:29.227Z</time>
      </trkpt>
      <trkpt lat="45.19792" lon="5.72737">
        <ele>390.8</ele>
        <time>2020-11-20T14:35:00.821Z</time>
      </trkpt>
      <trkpt lat="45.19791" lon="5.72734">
        <ele>391.4</ele>
        <time>2020-11-20T14:35:04.046Z</time>
      </trkpt>
      <trkpt lat="45.19794" lon="5.72731">
        <ele>394.6</ele>
        <time>2020-11-20T14:35:09.108Z</time>
      </trkpt>
      <trkpt lat="45.19801" lon="5.72736">
        <ele>397</ele>
        <time>2020-11-20T14:35:19.916Z</time>
      </trkpt>
      <trkpt lat="45.19808" lon="5.72744">
        <ele>398.3</ele>
        <time>2020-11-20T14:35:32.311Z</time>
      </trkpt>
      <trkpt lat="45.19809" lon="5.72745">
        <ele>398.6</ele>
        <time>2020-11-20T14:35:33.998Z</time>
        <extensions>
          <visugpx:TrkExtension xmlns:visugpx="https://www.visugpx.com/editgpx/">
            <visugpx:node>15</visugpx:node>
            </visugpx:TrkExtension>
        </extensions>
      </trkpt>
      <trkpt lat="45.19818" lon="5.72754">
        <ele>400.2</ele>
        <time>2020-11-20T14:35:49.182Z</time>
      </trkpt>
      <trkpt lat="45.19824" lon="5.72759">
        <ele>401</ele>
        <time>2020-11-20T14:35:56.758Z</time>
      </trkpt>
      <trkpt lat="45.19843" lon="5.72774">
        <ele>399.5</ele>
        <time>2020-11-20T14:35:59.541Z</time>
        <extensions>
          <visugpx:TrkExtension xmlns:visugpx="https://www.visugpx.com/editgpx/">
            <visugpx:node>16</visugpx:node>
            </visugpx:TrkExtension>
        </extensions>
      </trkpt>
      <trkpt lat="45.19853" lon="5.72781">
        <ele>397.7</ele>
        <time>2020-11-20T14:36:00.968Z</time>
      </trkpt>
      <trkpt lat="45.19854" lon="5.72779">
        <ele>399.2</ele>
        <time>2020-11-20T14:36:03.351Z</time>
      </trkpt>
      <trkpt lat="45.19853" lon="5.72775">
        <ele>401.6</ele>
        <time>2020-11-20T14:36:07.476Z</time>
      </trkpt>
      <trkpt lat="45.19848" lon="5.72768">
        <ele>404.8</ele>
        <time>2020-11-20T14:36:17.163Z</time>
      </trkpt>
      <trkpt lat="45.19848" lon="5.72767">
        <ele>405.5</ele>
        <time>2020-11-20T14:36:18.134Z</time>
      </trkpt>
      <trkpt lat="45.1985" lon="5.72766">
        <ele>406.7</ele>
        <time>2020-11-20T14:36:21.059Z</time>
      </trkpt>
      <trkpt lat="45.19857" lon="5.72775">
        <ele>402.7</ele>
        <time>2020-11-20T14:36:22.268Z</time>
      </trkpt>
      <trkpt lat="45.19858" lon="5.72773">
        <ele>404.3</ele>
        <time>2020-11-20T14:36:24.651Z</time>
      </trkpt>
      <trkpt lat="45.19855" lon="5.7277">
        <ele>405.4</ele>
        <time>2020-11-20T14:36:29.713Z</time>
      </trkpt>
      <trkpt lat="45.19855" lon="5.7277">
        <ele>405.4</ele>
        <time>2020-11-20T14:36:29.713Z</time>
      </trkpt>
      <trkpt lat="45.19856" lon="5.72769">
        <ele>406.3</ele>
        <time>2020-11-20T14:36:31.400Z</time>
      </trkpt>
      <trkpt lat="45.19859" lon="5.72773">
        <ele>404.5</ele>
        <time>2020-11-20T14:36:31.927Z</time>
      </trkpt>
      <trkpt lat="45.1986" lon="5.72772">
        <ele>405.4</ele>
        <time>2020-11-20T14:36:33.614Z</time>
      </trkpt>
      <trkpt lat="45.1986" lon="5.72771">
        <ele>406.1</ele>
        <time>2020-11-20T14:36:34.586Z</time>
      </trkpt>
      <trkpt lat="45.19857" lon="5.72767">
        <ele>407.9</ele>
        <time>2020-11-20T14:36:40.263Z</time>
      </trkpt>
      <trkpt lat="45.19854" lon="5.72763">
        <ele>409.7</ele>
        <time>2020-11-20T14:36:45.940Z</time>
      </trkpt>
      <trkpt lat="45.19853" lon="5.72762">
        <ele>410.1</ele>
        <time>2020-11-20T14:36:47.627Z</time>
      </trkpt>
      <trkpt lat="45.19854" lon="5.7276">
        <ele>411.7</ele>
        <time>2020-11-20T14:36:50.010Z</time>
      </trkpt>
      <trkpt lat="45.19854" lon="5.72754">
        <ele>415.6</ele>
        <time>2020-11-20T14:36:55.841Z</time>
      </trkpt>
      <trkpt lat="45.19856" lon="5.72754">
        <ele>416.1</ele>
        <time>2020-11-20T14:36:58.599Z</time>
      </trkpt>
      <trkpt lat="45.19856" lon="5.72762">
        <ele>410.9</ele>
        <time>2020-11-20T14:36:59.321Z</time>
      </trkpt>
      <trkpt lat="45.19857" lon="5.72762">
        <ele>411.1</ele>
        <time>2020-11-20T14:37:00.700Z</time>
      </trkpt>
      <trkpt lat="45.19857" lon="5.72759">
        <ele>413.1</ele>
        <time>2020-11-20T14:37:03.616Z</time>
      </trkpt>
      <trkpt lat="45.19857" lon="5.72758">
        <ele>413.8</ele>
        <time>2020-11-20T14:37:04.588Z</time>
      </trkpt>
      <trkpt lat="45.19858" lon="5.72741">
        <ele>422.4</ele>
        <time>2020-11-20T14:37:21.166Z</time>
      </trkpt>
      <trkpt lat="45.19856" lon="5.72737">
        <ele>423.3</ele>
        <time>2020-11-20T14:37:25.932Z</time>
      </trkpt>
      <trkpt lat="45.19853" lon="5.72736">
        <ele>422.9</ele>
        <time>2020-11-20T14:37:26.327Z</time>
      </trkpt>
      <trkpt lat="45.19851" lon="5.72735">
        <ele>422.7</ele>
        <time>2020-11-20T14:37:26.598Z</time>
      </trkpt>
      <trkpt lat="45.1985" lon="5.72734">
        <ele>422.8</ele>
        <time>2020-11-20T14:37:27.564Z</time>
      </trkpt>
      <trkpt lat="45.19848" lon="5.72736">
        <ele>421.6</ele>
        <time>2020-11-20T14:37:27.877Z</time>
      </trkpt>
      <trkpt lat="45.19847" lon="5.72737">
        <ele>421</ele>
        <time>2020-11-20T14:37:28.034Z</time>
      </trkpt>
      <trkpt lat="45.19844" lon="5.72741">
        <ele>418.8</ele>
        <time>2020-11-20T14:37:28.561Z</time>
      </trkpt>
      <trkpt lat="45.19843" lon="5.72743">
        <ele>417.9</ele>
        <time>2020-11-20T14:37:28.782Z</time>
      </trkpt>
      <trkpt lat="45.19842" lon="5.72749">
        <ele>415.5</ele>
        <time>2020-11-20T14:37:29.338Z</time>
      </trkpt>
      <trkpt lat="45.1984" lon="5.72746">
        <ele>416.1</ele>
        <time>2020-11-20T14:37:33.352Z</time>
        <extensions>
          <visugpx:TrkExtension xmlns:visugpx="https://www.visugpx.com/editgpx/">
            <visugpx:node>17</visugpx:node>
            </visugpx:TrkExtension>
        </extensions>
      </trkpt>
      <trkpt lat="45.19842" lon="5.72749">
        <ele>415.5</ele>
        <time>2020-11-20T14:37:33.724Z</time>
      </trkpt>
      <trkpt lat="45.19843" lon="5.72743">
        <ele>417.9</ele>
        <time>2020-11-20T14:37:39.716Z</time>
      </trkpt>
      <trkpt lat="45.19844" lon="5.72741">
        <ele>418.8</ele>
        <time>2020-11-20T14:37:42.099Z</time>
      </trkpt>
      <trkpt lat="45.19843" lon="5.72743">
        <ele>417.9</ele>
        <time>2020-11-20T14:37:42.320Z</time>
      </trkpt>
      <trkpt lat="45.19842" lon="5.72749">
        <ele>415.5</ele>
        <time>2020-11-20T14:37:42.876Z</time>
      </trkpt>
      <trkpt lat="45.19835" lon="5.7274">
        <ele>416.9</ele>
        <time>2020-11-20T14:37:55.903Z</time>
      </trkpt>
      <trkpt lat="45.19835" lon="5.72727">
        <ele>421.4</ele>
        <time>2020-11-20T14:38:08.537Z</time>
      </trkpt>
      <trkpt lat="45.19832" lon="5.7272">
        <ele>422.6</ele>
        <time>2020-11-20T14:38:16.499Z</time>
      </trkpt>
      <trkpt lat="45.19799" lon="5.72691">
        <ele>414.3</ele>
        <time>2020-11-20T14:38:21.468Z</time>
      </trkpt>
      <trkpt lat="45.19779" lon="5.72671">
        <ele>412</ele>
        <time>2020-11-20T14:38:24.600Z</time>
      </trkpt>
      <trkpt lat="45.19766" lon="5.7265">
        <ele>410.2</ele>
        <time>2020-11-20T14:38:27.121Z</time>
        <extensions>
          <visugpx:TrkExtension xmlns:visugpx="https://www.visugpx.com/editgpx/">
            <visugpx:node>18</visugpx:node>
            </visugpx:TrkExtension>
        </extensions>
      </trkpt>
      <trkpt lat="45.19765" lon="5.7265">
        <ele>409.7</ele>
        <time>2020-11-20T14:38:27.249Z</time>
      </trkpt>
      <trkpt lat="45.19758" lon="5.72623">
        <ele>410.9</ele>
        <time>2020-11-20T14:38:40.736Z</time>
      </trkpt>
      <trkpt lat="45.19744" lon="5.7259">
        <ele>409.6</ele>
        <time>2020-11-20T14:38:44.447Z</time>
      </trkpt>
      <trkpt lat="45.19744" lon="5.72556">
        <ele>407.5</ele>
        <time>2020-11-20T14:38:47.514Z</time>
      </trkpt>
      <trkpt lat="45.19745" lon="5.7254">
        <ele>406</ele>
        <time>2020-11-20T14:38:48.963Z</time>
        <extensions>
          <visugpx:TrkExtension xmlns:visugpx="https://www.visugpx.com/editgpx/">
            <visugpx:node>19</visugpx:node>
            </visugpx:TrkExtension>
        </extensions>
      </trkpt>
      <trkpt lat="45.19745" lon="5.72536">
        <ele>405.5</ele>
        <time>2020-11-20T14:38:49.324Z</time>
      </trkpt>
      <trkpt lat="45.1975" lon="5.72536">
        <ele>407.8</ele>
        <time>2020-11-20T14:38:56.220Z</time>
      </trkpt>
      <trkpt lat="45.19752" lon="5.72526">
        <ele>407.7</ele>
        <time>2020-11-20T14:38:57.656Z</time>
      </trkpt>
      <trkpt lat="45.19757" lon="5.72517">
        <ele>409.8</ele>
        <time>2020-11-20T14:39:08.793Z</time>
      </trkpt>
      <trkpt lat="45.19768" lon="5.72507">
        <ele>415.9</ele>
        <time>2020-11-20T14:39:26.810Z</time>
        <extensions>
          <visugpx:TrkExtension xmlns:visugpx="https://www.visugpx.com/editgpx/">
            <visugpx:node>20</visugpx:node>
            </visugpx:TrkExtension>
        </extensions>
      </trkpt>
      <trkpt lat="45.19772" lon="5.72503">
        <ele>418.3</ele>
        <time>2020-11-20T14:39:33.559Z</time>
      </trkpt>
      <trkpt lat="45.19775" lon="5.72503">
        <ele>420.3</ele>
        <time>2020-11-20T14:39:37.696Z</time>
      </trkpt>
      <trkpt lat="45.19765" lon="5.72529">
        <ele>416.1</ele>
        <time>2020-11-20T14:39:40.368Z</time>
      </trkpt>
      <trkpt lat="45.19764" lon="5.72549">
        <ele>417.5</ele>
        <time>2020-11-20T14:39:53.390Z</time>
      </trkpt>
      <trkpt lat="45.19766" lon="5.72583">
        <ele>421.8</ele>
        <time>2020-11-20T14:40:26.547Z</time>
      </trkpt>
      <trkpt lat="45.19768" lon="5.72586">
        <ele>422.4</ele>
        <time>2020-11-20T14:40:30.560Z</time>
      </trkpt>
      <trkpt lat="45.19771" lon="5.72584">
        <ele>424.2</ele>
        <time>2020-11-20T14:40:35.132Z</time>
      </trkpt>
      <trkpt lat="45.19774" lon="5.72566">
        <ele>424.5</ele>
        <time>2020-11-20T14:40:41.037Z</time>
        <extensions>
          <visugpx:TrkExtension xmlns:visugpx="https://www.visugpx.com/editgpx/">
            <visugpx:node>21</visugpx:node>
            </visugpx:TrkExtension>
        </extensions>
      </trkpt>
      <trkpt lat="45.1978" lon="5.7254">
        <ele>426</ele>
        <time>2020-11-20T14:40:55.775Z</time>
      </trkpt>
      <trkpt lat="45.19785" lon="5.72528">
        <ele>428.4</ele>
        <time>2020-11-20T14:41:09.324Z</time>
      </trkpt>
      <trkpt lat="45.19788" lon="5.72527">
        <ele>430.2</ele>
        <time>2020-11-20T14:41:13.574Z</time>
      </trkpt>
      <trkpt lat="45.19789" lon="5.72529">
        <ele>430.9</ele>
        <time>2020-11-20T14:41:15.957Z</time>
      </trkpt>
      <trkpt lat="45.1979" lon="5.72537">
        <ele>431.8</ele>
        <time>2020-11-20T14:41:23.853Z</time>
      </trkpt>
      <trkpt lat="45.19788" lon="5.72569">
        <ele>432.1</ele>
        <time>2020-11-20T14:41:33.065Z</time>
        <extensions>
          <visugpx:TrkExtension xmlns:visugpx="https://www.visugpx.com/editgpx/">
            <visugpx:node>22</visugpx:node>
            </visugpx:TrkExtension>
        </extensions>
      </trkpt>
      <trkpt lat="45.19787" lon="5.72596">
        <ele>430.1</ele>
        <time>2020-11-20T14:41:35.504Z</time>
      </trkpt>
      <trkpt lat="45.19789" lon="5.72614">
        <ele>428</ele>
        <time>2020-11-20T14:41:37.148Z</time>
      </trkpt>
      <trkpt lat="45.19793" lon="5.72622">
        <ele>428.7</ele>
        <time>2020-11-20T14:41:43.656Z</time>
      </trkpt>
      <trkpt lat="45.19814" lon="5.72643">
        <ele>435.8</ele>
        <time>2020-11-20T14:42:19.086Z</time>
      </trkpt>
      <trkpt lat="45.19828" lon="5.72655">
        <ele>441.1</ele>
        <time>2020-11-20T14:42:41.642Z</time>
      </trkpt>
      <trkpt lat="45.19839" lon="5.72668">
        <ele>443.1</ele>
        <time>2020-11-20T14:43:01.385Z</time>
        <extensions>
          <visugpx:TrkExtension xmlns:visugpx="https://www.visugpx.com/editgpx/">
            <visugpx:node>23</visugpx:node>
            </visugpx:TrkExtension>
        </extensions>
      </trkpt>
      <trkpt lat="45.19859" lon="5.72691">
        <ele>440.4</ele>
        <time>2020-11-20T14:43:04.680Z</time>
      </trkpt>
      <trkpt lat="45.19862" lon="5.72688">
        <ele>442.3</ele>
        <time>2020-11-20T14:43:09.741Z</time>
      </trkpt>
      <trkpt lat="45.19861" lon="5.72685">
        <ele>443.1</ele>
        <time>2020-11-20T14:43:12.967Z</time>
      </trkpt>
      <trkpt lat="45.19845" lon="5.72662">
        <ele>445.9</ele>
        <time>2020-11-20T14:43:40.241Z</time>
      </trkpt>
      <trkpt lat="45.19844" lon="5.72659">
        <ele>446.1</ele>
        <time>2020-11-20T14:43:42.147Z</time>
      </trkpt>
      <trkpt lat="45.19834" lon="5.72635">
        <ele>447.1</ele>
        <time>2020-11-20T14:43:54.503Z</time>
      </trkpt>
      <trkpt lat="45.19833" lon="5.72633">
        <ele>447.1</ele>
        <time>2020-11-20T14:43:55.121Z</time>
      </trkpt>
      <trkpt lat="45.19829" lon="5.72619">
        <ele>447.3</ele>
        <time>2020-11-20T14:43:59.718Z</time>
        <extensions>
          <visugpx:TrkExtension xmlns:visugpx="https://www.visugpx.com/editgpx/">
            <visugpx:node>24</visugpx:node>
            </visugpx:TrkExtension>
        </extensions>
      </trkpt>
      <trkpt lat="45.19827" lon="5.72609">
        <ele>447.8</ele>
        <time>2020-11-20T14:44:04.920Z</time>
      </trkpt>
      <trkpt lat="45.19823" lon="5.72585">
        <ele>449.7</ele>
        <time>2020-11-20T14:44:22.695Z</time>
      </trkpt>
      <trkpt lat="45.19822" lon="5.72545">
        <ele>450.7</ele>
        <time>2020-11-20T14:44:37.630Z</time>
      </trkpt>
      <trkpt lat="45.19823" lon="5.72516">
        <ele>452.4</ele>
        <time>2020-11-20T14:44:53.963Z</time>
      </trkpt>
      <trkpt lat="45.19829" lon="5.72488">
        <ele>455.3</ele>
        <time>2020-11-20T14:45:22.404Z</time>
        <extensions>
          <visugpx:TrkExtension xmlns:visugpx="https://www.visugpx.com/editgpx/">
            <visugpx:node>25</visugpx:node>
            </visugpx:TrkExtension>
        </extensions>
      </trkpt>
      <trkpt lat="45.19831" lon="5.72478">
        <ele>455.3</ele>
        <time>2020-11-20T14:45:25.023Z</time>
      </trkpt>
      <trkpt lat="45.19833" lon="5.72462">
        <ele>454.3</ele>
        <time>2020-11-20T14:45:26.489Z</time>
      </trkpt>
      <trkpt lat="45.19834" lon="5.72458">
        <ele>454.1</ele>
        <time>2020-11-20T14:45:26.872Z</time>
      </trkpt>
      <trkpt lat="45.19838" lon="5.72446">
        <ele>453.5</ele>
        <time>2020-11-20T14:45:27.990Z</time>
      </trkpt>
      <trkpt lat="45.19841" lon="5.72444">
        <ele>454</ele>
        <time>2020-11-20T14:45:32.562Z</time>
        <extensions>
          <visugpx:TrkExtension xmlns:visugpx="https://www.visugpx.com/editgpx/">
            <visugpx:node>26</visugpx:node>
            </visugpx:TrkExtension>
        </extensions>
      </trkpt>
      <trkpt lat="45.19843" lon="5.72442">
        <ele>454.3</ele>
        <time>2020-11-20T14:45:35.480Z</time>
      </trkpt>
      <trkpt lat="45.19845" lon="5.72442">
        <ele>454.8</ele>
        <time>2020-11-20T14:45:38.238Z</time>
      </trkpt>
      <trkpt lat="45.19847" lon="5.72445">
        <ele>455.8</ele>
        <time>2020-11-20T14:45:42.252Z</time>
      </trkpt>
      <trkpt lat="45.19849" lon="5.7245">
        <ele>457.1</ele>
        <time>2020-11-20T14:45:47.839Z</time>
      </trkpt>
      <trkpt lat="45.19849" lon="5.72465">
        <ele>459.3</ele>
        <time>2020-11-20T14:46:02.416Z</time>
      </trkpt>
      <trkpt lat="45.19852" lon="5.72504">
        <ele>465.1</ele>
        <time>2020-11-20T14:46:40.542Z</time>
        <extensions>
          <visugpx:TrkExtension xmlns:visugpx="https://www.visugpx.com/editgpx/">
            <visugpx:node>27</visugpx:node>
            </visugpx:TrkExtension>
        </extensions>
      </trkpt>
      <trkpt lat="45.19852" lon="5.72507">
        <ele>464.9</ele>
        <time>2020-11-20T14:46:40.813Z</time>
      </trkpt>
      <trkpt lat="45.19855" lon="5.72556">
        <ele>462.4</ele>
        <time>2020-11-20T14:46:45.249Z</time>
      </trkpt>
      <trkpt lat="45.19858" lon="5.72557">
        <ele>463.1</ele>
        <time>2020-11-20T14:46:49.499Z</time>
      </trkpt>
      <trkpt lat="45.19859" lon="5.72552">
        <ele>463.7</ele>
        <time>2020-11-20T14:46:54.551Z</time>
      </trkpt>
      <trkpt lat="45.19859" lon="5.72542">
        <ele>464.4</ele>
        <time>2020-11-20T14:47:01.061Z</time>
        <extensions>
          <visugpx:TrkExtension xmlns:visugpx="https://www.visugpx.com/editgpx/">
            <visugpx:node>28</visugpx:node>
            </visugpx:TrkExtension>
        </extensions>
      </trkpt>
      <trkpt lat="45.19857" lon="5.72514">
        <ele>465.8</ele>
        <time>2020-11-20T14:47:15.394Z</time>
      </trkpt>
      <trkpt lat="45.19857" lon="5.72498">
        <ele>466.5</ele>
        <time>2020-11-20T14:47:23.049Z</time>
      </trkpt>
      <trkpt lat="45.19856" lon="5.72492">
        <ele>465.3</ele>
        <time>2020-11-20T14:47:23.605Z</time>
      </trkpt>
      <trkpt lat="45.19867" lon="5.72484">
        <ele>467.2</ele>
        <time>2020-11-20T14:47:40.652Z</time>
      </trkpt>
      <trkpt lat="45.19877" lon="5.7248">
        <ele>469.4</ele>
        <time>2020-11-20T14:47:54.980Z</time>
      </trkpt>
      <trkpt lat="45.19886" lon="5.72475">
        <ele>471.2</ele>
        <time>2020-11-20T14:48:08.310Z</time>
      </trkpt>
      <trkpt lat="45.19887" lon="5.7247">
        <ele>470.7</ele>
        <time>2020-11-20T14:48:08.779Z</time>
      </trkpt>
      <trkpt lat="45.19888" lon="5.7246">
        <ele>469.4</ele>
        <time>2020-11-20T14:48:09.690Z</time>
      </trkpt>
      <trkpt lat="45.19888" lon="5.72456">
        <ele>468.7</ele>
        <time>2020-11-20T14:48:10.051Z</time>
      </trkpt>
      <trkpt lat="45.19889" lon="5.72454">
        <ele>468.7</ele>
        <time>2020-11-20T14:48:10.668Z</time>
      </trkpt>
      <trkpt lat="45.1989" lon="5.72448">
        <ele>468</ele>
        <time>2020-11-20T14:48:11.225Z</time>
      </trkpt>
      <trkpt lat="45.19894" lon="5.72438">
        <ele>467.5</ele>
        <time>2020-11-20T14:48:12.212Z</time>
      </trkpt>
      <trkpt lat="45.19897" lon="5.72436">
        <ele>467.9</ele>
        <time>2020-11-20T14:48:16.072Z</time>
      </trkpt>
      <trkpt lat="45.19905" lon="5.72433">
        <ele>469.6</ele>
        <time>2020-11-20T14:48:27.483Z</time>
        <extensions>
          <visugpx:TrkExtension xmlns:visugpx="https://www.visugpx.com/editgpx/">
            <visugpx:node>29</visugpx:node>
            </visugpx:TrkExtension>
        </extensions>
      </trkpt>
      <trkpt lat="45.19937" lon="5.72422">
        <ele>469.3</ele>
        <time>2020-11-20T14:48:34.332Z</time>
      </trkpt>
      <trkpt lat="45.19966" lon="5.72422">
        <ele>467.1</ele>
        <time>2020-11-20T14:48:38.045Z</time>
      </trkpt>
      <trkpt lat="45.20011" lon="5.72426">
        <ele>467.7</ele>
        <time>2020-11-20T14:48:56.404Z</time>
      </trkpt>
      <trkpt lat="45.20036" lon="5.72428">
        <ele>473.1</ele>
        <time>2020-11-20T14:49:30.937Z</time>
      </trkpt>
      <trkpt lat="45.20045" lon="5.72429">
        <ele>475</ele>
        <time>2020-11-20T14:49:43.388Z</time>
        <extensions>
          <visugpx:TrkExtension xmlns:visugpx="https://www.visugpx.com/editgpx/">
            <visugpx:node>30</visugpx:node>
            </visugpx:TrkExtension>
        </extensions>
      </trkpt>
      <trkpt lat="45.20055" lon="5.7243">
        <ele>477.1</ele>
        <time>2020-11-20T14:49:57.213Z</time>
      </trkpt>
      <trkpt lat="45.20063" lon="5.72434">
        <ele>479.3</ele>
        <time>2020-11-20T14:50:08.911Z</time>
      </trkpt>
      <trkpt lat="45.20068" lon="5.7244">
        <ele>481.1</ele>
        <time>2020-11-20T14:50:17.942Z</time>
      </trkpt>
      <trkpt lat="45.20071" lon="5.72445">
        <ele>482.3</ele>
        <time>2020-11-20T14:50:24.324Z</time>
      </trkpt>
      <trkpt lat="45.20073" lon="5.72456">
        <ele>484.2</ele>
        <time>2020-11-20T14:50:35.363Z</time>
      </trkpt>
      <trkpt lat="45.20074" lon="5.72466">
        <ele>485.7</ele>
        <time>2020-11-20T14:50:45.178Z</time>
      </trkpt>
      <trkpt lat="45.20074" lon="5.72482">
        <ele>487.9</ele>
        <time>2020-11-20T14:51:00.727Z</time>
      </trkpt>
      <trkpt lat="45.20068" lon="5.72515">
        <ele>488.4</ele>
        <time>2020-11-20T14:51:11.337Z</time>
      </trkpt>
      <trkpt lat="45.20068" lon="5.72523">
        <ele>487.6</ele>
        <time>2020-11-20T14:51:12.058Z</time>
      </trkpt>
      <trkpt lat="45.2007" lon="5.72531">
        <ele>486.9</ele>
        <time>2020-11-20T14:51:12.824Z</time>
      </trkpt>
      <trkpt lat="45.20077" lon="5.72544">
        <ele>485.9</ele>
        <time>2020-11-20T14:51:14.300Z</time>
      </trkpt>
      <trkpt lat="45.20101" lon="5.72542">
        <ele>492</ele>
        <time>2020-11-20T14:51:47.456Z</time>
      </trkpt>
      <trkpt lat="45.20109" lon="5.72543">
        <ele>494.3</ele>
        <time>2020-11-20T14:51:58.532Z</time>
      </trkpt>
      <trkpt lat="45.20112" lon="5.72544">
        <ele>495.1</ele>
        <time>2020-11-20T14:52:02.782Z</time>
      </trkpt>
      <trkpt lat="45.20162" lon="5.7256">
        <ele>507</ele>
        <time>2020-11-20T14:53:13.471Z</time>
      </trkpt>
      <trkpt lat="45.2018" lon="5.72571">
        <ele>510.9</ele>
        <time>2020-11-20T14:53:40.499Z</time>
        <extensions>
          <visugpx:TrkExtension xmlns:visugpx="https://www.visugpx.com/editgpx/">
            <visugpx:node>31</visugpx:node>
            </visugpx:TrkExtension>
        </extensions>
      </trkpt>
      <trkpt lat="45.20194" lon="5.72581">
        <ele>513.8</ele>
        <time>2020-11-20T14:54:02.115Z</time>
      </trkpt>
      <trkpt lat="45.20198" lon="5.72588">
        <ele>512.8</ele>
        <time>2020-11-20T14:54:02.928Z</time>
      </trkpt>
      <trkpt lat="45.20224" lon="5.72622">
        <ele>508</ele>
        <time>2020-11-20T14:54:07.453Z</time>
      </trkpt>
      <trkpt lat="45.20257" lon="5.72651">
        <ele>506.2</ele>
        <time>2020-11-20T14:54:12.832Z</time>
      </trkpt>
      <trkpt lat="45.20264" lon="5.72665">
        <ele>502.4</ele>
        <time>2020-11-20T14:54:14.381Z</time>
      </trkpt>
      <trkpt lat="45.2027" lon="5.72675">
        <ele>499.1</ele>
        <time>2020-11-20T14:54:15.565Z</time>
      </trkpt>
      <trkpt lat="45.20286" lon="5.72691">
        <ele>496.6</ele>
        <time>2020-11-20T14:54:18.071Z</time>
      </trkpt>
      <trkpt lat="45.20358" lon="5.72742">
        <ele>505</ele>
        <time>2020-11-20T14:55:36.235Z</time>
      </trkpt>
      <trkpt lat="45.20451" lon="5.72828">
        <ele>513.4</ele>
        <time>2020-11-20T14:56:59.669Z</time>
      </trkpt>
      <trkpt lat="45.20501" lon="5.72871">
        <ele>521.8</ele>
        <time>2020-11-20T14:58:20.298Z</time>
      </trkpt>
      <trkpt lat="45.20515" lon="5.72884">
        <ele>521.4</ele>
        <time>2020-11-20T14:58:23.200Z</time>
        <extensions>
          <visugpx:TrkExtension xmlns:visugpx="https://www.visugpx.com/editgpx/">
            <visugpx:node>32</visugpx:node>
            </visugpx:TrkExtension>
        </extensions>
      </trkpt>
      <trkpt lat="45.20528" lon="5.72898">
        <ele>519.8</ele>
        <time>2020-11-20T14:58:25.289Z</time>
      </trkpt>
      <trkpt lat="45.20553" lon="5.72917">
        <ele>518.8</ele>
        <time>2020-11-20T14:58:29.653Z</time>
      </trkpt>
      <trkpt lat="45.20588" lon="5.72939">
        <ele>517.5</ele>
        <time>2020-11-20T14:58:35.622Z</time>
      </trkpt>
      <trkpt lat="45.20644" lon="5.72992">
        <ele>515.8</ele>
        <time>2020-11-20T14:58:47.126Z</time>
      </trkpt>
      <trkpt lat="45.2066" lon="5.73009">
        <ele>514.5</ele>
        <time>2020-11-20T14:58:49.499Z</time>
      </trkpt>
      <trkpt lat="45.20671" lon="5.7302">
        <ele>514.7</ele>
        <time>2020-11-20T14:58:55.068Z</time>
      </trkpt>
      <trkpt lat="45.20685" lon="5.73028">
        <ele>518.8</ele>
        <time>2020-11-20T14:59:15.882Z</time>
      </trkpt>
      <trkpt lat="45.20704" lon="5.73051">
        <ele>517.3</ele>
        <time>2020-11-20T14:59:18.965Z</time>
      </trkpt>
      <trkpt lat="45.20724" lon="5.73064">
        <ele>520.8</ele>
        <time>2020-11-20T14:59:49.303Z</time>
      </trkpt>
      <trkpt lat="45.20738" lon="5.73082">
        <ele>517.7</ele>
        <time>2020-11-20T14:59:51.721Z</time>
      </trkpt>
      <trkpt lat="45.20773" lon="5.7312">
        <ele>523.1</ele>
        <time>2020-11-20T15:00:44.229Z</time>
      </trkpt>
      <trkpt lat="45.2078" lon="5.73131">
        <ele>523</ele>
        <time>2020-11-20T15:00:46.388Z</time>
      </trkpt>
      <trkpt lat="45.20806" lon="5.73193">
        <ele>511.9</ele>
        <time>2020-11-20T15:00:52.895Z</time>
      </trkpt>
      <trkpt lat="45.20827" lon="5.73233">
        <ele>505.4</ele>
        <time>2020-11-20T15:00:57.394Z</time>
      </trkpt>
      <trkpt lat="45.20829" lon="5.73237">
        <ele>504.7</ele>
        <time>2020-11-20T15:00:57.837Z</time>
      </trkpt>
      <trkpt lat="45.20842" lon="5.73273">
        <ele>496.9</ele>
        <time>2020-11-20T15:01:01.485Z</time>
      </trkpt>
      <trkpt lat="45.20846" lon="5.7328">
        <ele>496</ele>
        <time>2020-11-20T15:01:02.298Z</time>
      </trkpt>
      <trkpt lat="45.20851" lon="5.73291">
        <ele>493.9</ele>
        <time>2020-11-20T15:01:03.478Z</time>
      </trkpt>
      <trkpt lat="45.20855" lon="5.73303">
        <ele>490.7</ele>
        <time>2020-11-20T15:01:04.676Z</time>
      </trkpt>
      <trkpt lat="45.20856" lon="5.73304">
        <ele>490.6</ele>
        <time>2020-11-20T15:01:04.832Z</time>
        <extensions>
          <visugpx:TrkExtension xmlns:visugpx="https://www.visugpx.com/editgpx/">
            <visugpx:node>33</visugpx:node>
            </visugpx:TrkExtension>
        </extensions>
      </trkpt>
      <trkpt lat="45.20855" lon="5.73303">
        <ele>490.7</ele>
        <time>2020-11-20T15:01:05.798Z</time>
      </trkpt>
      <trkpt lat="45.20863" lon="5.73307">
        <ele>492</ele>
        <time>2020-11-20T15:01:17.496Z</time>
      </trkpt>
      <trkpt lat="45.20878" lon="5.73309">
        <ele>496.5</ele>
        <time>2020-11-20T15:01:38.274Z</time>
      </trkpt>
      <trkpt lat="45.20906" lon="5.73303">
        <ele>509.8</ele>
        <time>2020-11-20T15:02:17.328Z</time>
      </trkpt>
      <trkpt lat="45.20923" lon="5.73305">
        <ele>514.2</ele>
        <time>2020-11-20T15:02:40.853Z</time>
      </trkpt>
      <trkpt lat="45.20937" lon="5.73311">
        <ele>514.3</ele>
        <time>2020-11-20T15:02:46.432Z</time>
      </trkpt>
      <trkpt lat="45.20938" lon="5.7331">
        <ele>515.1</ele>
        <time>2020-11-20T15:02:48.119Z</time>
        <extensions>
          <visugpx:TrkExtension xmlns:visugpx="https://www.visugpx.com/editgpx/">
            <visugpx:node>34</visugpx:node>
            </visugpx:TrkExtension>
        </extensions>
      </trkpt>
      <trkpt lat="45.20953" lon="5.73304">
        <ele>522.4</ele>
        <time>2020-11-20T15:03:09.612Z</time>
      </trkpt>
      <trkpt lat="45.2099" lon="5.73298">
        <ele>535.7</ele>
        <time>2020-11-20T15:04:00.972Z</time>
      </trkpt>
      <trkpt lat="45.2099" lon="5.73297">
        <ele>536.3</ele>
        <time>2020-11-20T15:04:01.944Z</time>
      </trkpt>
      <trkpt lat="45.20964" lon="5.73288">
        <ele>535</ele>
        <time>2020-11-20T15:04:05.581Z</time>
      </trkpt>
      <trkpt lat="45.20945" lon="5.73286">
        <ele>531</ele>
        <time>2020-11-20T15:04:08.020Z</time>
      </trkpt>
      <trkpt lat="45.2094" lon="5.73281">
        <ele>532.5</ele>
        <time>2020-11-20T15:04:16.455Z</time>
        <extensions>
          <visugpx:TrkExtension xmlns:visugpx="https://www.visugpx.com/editgpx/">
            <visugpx:node>35</visugpx:node>
            </visugpx:TrkExtension>
        </extensions>
      </trkpt>
      <trkpt lat="45.20929" lon="5.73271">
        <ele>535.1</ele>
        <time>2020-11-20T15:04:34.470Z</time>
      </trkpt>
      <trkpt lat="45.20907" lon="5.73256">
        <ele>535</ele>
        <time>2020-11-20T15:04:42.682Z</time>
      </trkpt>
      <trkpt lat="45.20907" lon="5.73255">
        <ele>535.5</ele>
        <time>2020-11-20T15:04:43.653Z</time>
      </trkpt>
      <trkpt lat="45.20908" lon="5.73254">
        <ele>536.5</ele>
        <time>2020-11-20T15:04:45.340Z</time>
      </trkpt>
      <trkpt lat="45.20936" lon="5.7326">
        <ele>543.5</ele>
        <time>2020-11-20T15:05:24.394Z</time>
      </trkpt>
      <trkpt lat="45.20946" lon="5.7326">
        <ele>546.6</ele>
        <time>2020-11-20T15:05:38.185Z</time>
        <extensions>
          <visugpx:TrkExtension xmlns:visugpx="https://www.visugpx.com/editgpx/">
            <visugpx:node>36</visugpx:node>
            </visugpx:TrkExtension>
        </extensions>
      </trkpt>
      <trkpt lat="45.20951" lon="5.7326">
        <ele>548.2</ele>
        <time>2020-11-20T15:05:45.081Z</time>
      </trkpt>
      <trkpt lat="45.20963" lon="5.73256">
        <ele>554.3</ele>
        <time>2020-11-20T15:06:02.081Z</time>
      </trkpt>
      <trkpt lat="45.20967" lon="5.73252">
        <ele>558.1</ele>
        <time>2020-11-20T15:06:08.829Z</time>
      </trkpt>
      <trkpt lat="45.20978" lon="5.73252">
        <ele>561.6</ele>
        <time>2020-11-20T15:06:24.000Z</time>
      </trkpt>
      <trkpt lat="45.20981" lon="5.73248">
        <ele>565.1</ele>
        <time>2020-11-20T15:06:29.677Z</time>
      </trkpt>
      <trkpt lat="45.20986" lon="5.73248">
        <ele>566.8</ele>
        <time>2020-11-20T15:06:36.572Z</time>
      </trkpt>
      <trkpt lat="45.20987" lon="5.73245">
        <ele>569</ele>
        <time>2020-11-20T15:06:39.797Z</time>
      </trkpt>
      <trkpt lat="45.20986" lon="5.73244">
        <ele>569.3</ele>
        <time>2020-11-20T15:06:41.484Z</time>
      </trkpt>
      <trkpt lat="45.20972" lon="5.73242">
        <ele>566</ele>
        <time>2020-11-20T15:06:43.285Z</time>
      </trkpt>
      <trkpt lat="45.20958" lon="5.73237">
        <ele>564.4</ele>
        <time>2020-11-20T15:06:45.133Z</time>
      </trkpt>
      <trkpt lat="45.20953" lon="5.73236">
        <ele>563.3</ele>
        <time>2020-11-20T15:06:45.780Z</time>
        <extensions>
          <visugpx:TrkExtension xmlns:visugpx="https://www.visugpx.com/editgpx/">
            <visugpx:node>37</visugpx:node>
            </visugpx:TrkExtension>
        </extensions>
      </trkpt>
      <trkpt lat="45.20941" lon="5.73235">
        <ele>559.9</ele>
        <time>2020-11-20T15:06:47.318Z</time>
      </trkpt>
      <trkpt lat="45.20929" lon="5.73224">
        <ele>562.3</ele>
        <time>2020-11-20T15:07:07.019Z</time>
      </trkpt>
      <trkpt lat="45.20928" lon="5.73221">
        <ele>563.7</ele>
        <time>2020-11-20T15:07:10.244Z</time>
      </trkpt>
      <trkpt lat="45.2093" lon="5.73221">
        <ele>564.4</ele>
        <time>2020-11-20T15:07:13.002Z</time>
      </trkpt>
      <trkpt lat="45.2094" lon="5.73225">
        <ele>565.5</ele>
        <time>2020-11-20T15:07:23.249Z</time>
      </trkpt>
      <trkpt lat="45.20953" lon="5.73225">
        <ele>570.1</ele>
        <time>2020-11-20T15:07:41.178Z</time>
      </trkpt>
      <trkpt lat="45.20957" lon="5.7322">
        <ele>574.6</ele>
        <time>2020-11-20T15:07:48.529Z</time>
      </trkpt>
      <trkpt lat="45.20961" lon="5.7322">
        <ele>576</ele>
        <time>2020-11-20T15:07:54.046Z</time>
        <extensions>
          <visugpx:TrkExtension xmlns:visugpx="https://www.visugpx.com/editgpx/">
            <visugpx:node>38</visugpx:node>
            </visugpx:TrkExtension>
        </extensions>
      </trkpt>
      <trkpt lat="45.20963" lon="5.7322">
        <ele>576.7</ele>
        <time>2020-11-20T15:07:56.804Z</time>
      </trkpt>
      <trkpt lat="45.20967" lon="5.73223">
        <ele>576.2</ele>
        <time>2020-11-20T15:07:57.383Z</time>
      </trkpt>
      <trkpt lat="45.20983" lon="5.73214">
        <ele>587.6</ele>
        <time>2020-11-20T15:08:21.119Z</time>
      </trkpt>
      <trkpt lat="45.20988" lon="5.73214">
        <ele>589.4</ele>
        <time>2020-11-20T15:08:28.015Z</time>
      </trkpt>
      <trkpt lat="45.20988" lon="5.73211">
        <ele>591.4</ele>
        <time>2020-11-20T15:08:30.930Z</time>
      </trkpt>
      <trkpt lat="45.20975" lon="5.73212">
        <ele>586</ele>
        <time>2020-11-20T15:08:32.596Z</time>
      </trkpt>
      <trkpt lat="45.20972" lon="5.73208">
        <ele>587.5</ele>
        <time>2020-11-20T15:08:38.273Z</time>
      </trkpt>
      <trkpt lat="45.20984" lon="5.73202">
        <ele>595.7</ele>
        <time>2020-11-20T15:08:55.819Z</time>
      </trkpt>
      <trkpt lat="45.21006" lon="5.73176">
        <ele>619.7</ele>
        <time>2020-11-20T15:09:35.301Z</time>
      </trkpt>
      <trkpt lat="45.21019" lon="5.73169">
        <ele>626</ele>
        <time>2020-11-20T15:09:54.476Z</time>
      </trkpt>
      <trkpt lat="45.21029" lon="5.73178">
        <ele>621.5</ele>
        <time>2020-11-20T15:09:55.992Z</time>
      </trkpt>
      <trkpt lat="45.2103" lon="5.73179">
        <ele>621</ele>
        <time>2020-11-20T15:09:56.148Z</time>
        <extensions>
          <visugpx:TrkExtension xmlns:visugpx="https://www.visugpx.com/editgpx/">
            <visugpx:node>39</visugpx:node>
            </visugpx:TrkExtension>
        </extensions>
      </trkpt>
      <trkpt lat="45.21045" lon="5.73188">
        <ele>617.4</ele>
        <time>2020-11-20T15:09:58.233Z</time>
      </trkpt>
      <trkpt lat="45.21053" lon="5.73188">
        <ele>618.6</ele>
        <time>2020-11-20T15:10:09.266Z</time>
      </trkpt>
      <trkpt lat="45.21064" lon="5.73197">
        <ele>614.5</ele>
        <time>2020-11-20T15:10:10.892Z</time>
      </trkpt>
      <trkpt lat="45.2108" lon="5.73206">
        <ele>611.4</ele>
        <time>2020-11-20T15:10:13.095Z</time>
      </trkpt>
      <trkpt lat="45.21085" lon="5.73206">
        <ele>612.9</ele>
        <time>2020-11-20T15:10:19.990Z</time>
      </trkpt>
      <trkpt lat="45.21085" lon="5.73204">
        <ele>614.1</ele>
        <time>2020-11-20T15:10:21.934Z</time>
      </trkpt>
      <trkpt lat="45.21079" lon="5.73194">
        <ele>618.6</ele>
        <time>2020-11-20T15:10:34.696Z</time>
      </trkpt>
      <trkpt lat="45.21063" lon="5.73168">
        <ele>632.5</ele>
        <time>2020-11-20T15:11:08.238Z</time>
      </trkpt>
      <trkpt lat="45.2106" lon="5.73164">
        <ele>634.4</ele>
        <time>2020-11-20T15:11:13.915Z</time>
      </trkpt>
      <trkpt lat="45.21041" lon="5.73152">
        <ele>638.1</ele>
        <time>2020-11-20T15:11:42.595Z</time>
      </trkpt>
      <trkpt lat="45.21039" lon="5.73146">
        <ele>640.9</ele>
        <time>2020-11-20T15:11:49.045Z</time>
        <extensions>
          <visugpx:TrkExtension xmlns:visugpx="https://www.visugpx.com/editgpx/">
            <visugpx:node>40</visugpx:node>
            </visugpx:TrkExtension>
        </extensions>
      </trkpt>
      <trkpt lat="45.21035" lon="5.73137">
        <ele>644.8</ele>
        <time>2020-11-20T15:11:59.384Z</time>
      </trkpt>
      <trkpt lat="45.21027" lon="5.73127">
        <ele>648.5</ele>
        <time>2020-11-20T15:12:14.085Z</time>
      </trkpt>
      <trkpt lat="45.21023" lon="5.73127">
        <ele>647.8</ele>
        <time>2020-11-20T15:12:14.597Z</time>
      </trkpt>
      <trkpt lat="45.2102" lon="5.73124">
        <ele>648.7</ele>
        <time>2020-11-20T15:12:19.659Z</time>
      </trkpt>
      <trkpt lat="45.21016" lon="5.73131">
        <ele>644.5</ele>
        <time>2020-11-20T15:12:20.471Z</time>
      </trkpt>
      <trkpt lat="45.21001" lon="5.73139">
        <ele>638.1</ele>
        <time>2020-11-20T15:12:22.523Z</time>
      </trkpt>
      <trkpt lat="45.20989" lon="5.7314">
        <ele>632.4</ele>
        <time>2020-11-20T15:12:24.061Z</time>
      </trkpt>
      <trkpt lat="45.20989" lon="5.73139">
        <ele>632.8</ele>
        <time>2020-11-20T15:12:25.033Z</time>
      </trkpt>
      <trkpt lat="45.2099" lon="5.73137">
        <ele>634.2</ele>
        <time>2020-11-20T15:12:27.416Z</time>
      </trkpt>
      <trkpt lat="45.21009" lon="5.73115">
        <ele>651</ele>
        <time>2020-11-20T15:13:01.232Z</time>
      </trkpt>
      <trkpt lat="45.21017" lon="5.73101">
        <ele>659.4</ele>
        <time>2020-11-20T15:13:18.747Z</time>
      </trkpt>
      <trkpt lat="45.21025" lon="5.73103">
        <ele>660.2</ele>
        <time>2020-11-20T15:13:26.190Z</time>
      </trkpt>
      <trkpt lat="45.21043" lon="5.73112">
        <ele>659.3</ele>
        <time>2020-11-20T15:13:28.817Z</time>
        <extensions>
          <visugpx:TrkExtension xmlns:visugpx="https://www.visugpx.com/editgpx/">
            <visugpx:node>41</visugpx:node>
            </visugpx:TrkExtension>
        </extensions>
      </trkpt>
      <trkpt lat="45.21047" lon="5.73115">
        <ele>658.5</ele>
        <time>2020-11-20T15:13:29.396Z</time>
      </trkpt>
      <trkpt lat="45.21061" lon="5.73119">
        <ele>659.1</ele>
        <time>2020-11-20T15:13:37.696Z</time>
      </trkpt>
      <trkpt lat="45.21073" lon="5.73118">
        <ele>662</ele>
        <time>2020-11-20T15:13:54.275Z</time>
      </trkpt>
      <trkpt lat="45.21077" lon="5.7312">
        <ele>661.7</ele>
        <time>2020-11-20T15:13:54.817Z</time>
      </trkpt>
      <trkpt lat="45.21103" lon="5.73148">
        <ele>656.2</ele>
        <time>2020-11-20T15:13:58.995Z</time>
      </trkpt>
      <trkpt lat="45.21115" lon="5.73151">
        <ele>660.2</ele>
        <time>2020-11-20T15:14:15.800Z</time>
      </trkpt>
      <trkpt lat="45.21133" lon="5.73141">
        <ele>674.3</ele>
        <time>2020-11-20T15:14:42.458Z</time>
      </trkpt>
      <trkpt lat="45.21115" lon="5.73137">
        <ele>668</ele>
        <time>2020-11-20T15:14:44.790Z</time>
      </trkpt>
      <trkpt lat="45.21119" lon="5.73131">
        <ele>673.2</ele>
        <time>2020-11-20T15:14:52.816Z</time>
      </trkpt>
      <trkpt lat="45.21142" lon="5.73122">
        <ele>688.7</ele>
        <time>2020-11-20T15:15:25.720Z</time>
      </trkpt>
      <trkpt lat="45.21149" lon="5.73123">
        <ele>691.4</ele>
        <time>2020-11-20T15:15:35.423Z</time>
      </trkpt>
      <trkpt lat="45.21154" lon="5.73133">
        <ele>688.4</ele>
        <time>2020-11-20T15:15:36.528Z</time>
      </trkpt>
      <trkpt lat="45.21155" lon="5.73134">
        <ele>688.4</ele>
        <time>2020-11-20T15:15:36.966Z</time>
        <extensions>
          <visugpx:TrkExtension xmlns:visugpx="https://www.visugpx.com/editgpx/">
            <visugpx:node>42</visugpx:node>
            </visugpx:TrkExtension>
        </extensions>
      </trkpt>
      <trkpt lat="45.21176" lon="5.73154">
        <ele>690.4</ele>
        <time>2020-11-20T15:15:56.499Z</time>
      </trkpt>
      <trkpt lat="45.212" lon="5.73187">
        <ele>692.1</ele>
        <time>2020-11-20T15:16:17.510Z</time>
      </trkpt>
      <trkpt lat="45.21212" lon="5.732">
        <ele>694.4</ele>
        <time>2020-11-20T15:16:38.329Z</time>
      </trkpt>
      <trkpt lat="45.21221" lon="5.73212">
        <ele>694.8</ele>
        <time>2020-11-20T15:16:44.607Z</time>
      </trkpt>
      <trkpt lat="45.2123" lon="5.73216">
        <ele>699.1</ele>
        <time>2020-11-20T15:16:57.614Z</time>
      </trkpt>
      <trkpt lat="45.21251" lon="5.73231">
        <ele>705.8</ele>
        <time>2020-11-20T15:17:30.036Z</time>
      </trkpt>
      <trkpt lat="45.21258" lon="5.73241">
        <ele>705.6</ele>
        <time>2020-11-20T15:17:31.835Z</time>
      </trkpt>
      <trkpt lat="45.21262" lon="5.73252">
        <ele>702.9</ele>
        <time>2020-11-20T15:17:32.951Z</time>
      </trkpt>
      <trkpt lat="45.21267" lon="5.73256">
        <ele>704.6</ele>
        <time>2020-11-20T15:17:40.867Z</time>
      </trkpt>
      <trkpt lat="45.21283" lon="5.73256">
        <ele>716.2</ele>
        <time>2020-11-20T15:18:02.933Z</time>
      </trkpt>
      <trkpt lat="45.21287" lon="5.73259">
        <ele>717.7</ele>
        <time>2020-11-20T15:18:09.172Z</time>
      </trkpt>
      <trkpt lat="45.213" lon="5.73283">
        <ele>714.8</ele>
        <time>2020-11-20T15:18:11.902Z</time>
      </trkpt>
      <trkpt lat="45.213" lon="5.73294">
        <ele>709.2</ele>
        <time>2020-11-20T15:18:12.894Z</time>
      </trkpt>
      <trkpt lat="45.21303" lon="5.73297">
        <ele>709.7</ele>
        <time>2020-11-20T15:18:17.955Z</time>
      </trkpt>
      <trkpt lat="45.21325" lon="5.73291">
        <ele>727.7</ele>
        <time>2020-11-20T15:18:48.852Z</time>
      </trkpt>
      <trkpt lat="45.2133" lon="5.73293">
        <ele>730</ele>
        <time>2020-11-20T15:18:56.016Z</time>
      </trkpt>
      <trkpt lat="45.21362" lon="5.73327">
        <ele>737.6</ele>
        <time>2020-11-20T15:19:51.142Z</time>
      </trkpt>
      <trkpt lat="45.21369" lon="5.73341">
        <ele>737.6</ele>
        <time>2020-11-20T15:19:55.466Z</time>
      </trkpt>
      <trkpt lat="45.21388" lon="5.73369">
        <ele>743.3</ele>
        <time>2020-11-20T15:20:33.238Z</time>
      </trkpt>
      <trkpt lat="45.21391" lon="5.73371">
        <ele>745.1</ele>
        <time>2020-11-20T15:20:37.809Z</time>
        <extensions>
          <visugpx:TrkExtension xmlns:visugpx="https://www.visugpx.com/editgpx/">
            <visugpx:node>43</visugpx:node>
            </visugpx:TrkExtension>
        </extensions>
      </trkpt>
      <trkpt lat="45.21402" lon="5.73377">
        <ele>752</ele>
        <time>2020-11-20T15:20:54.061Z</time>
      </trkpt>
      <trkpt lat="45.21404" lon="5.73381">
        <ele>752.2</ele>
        <time>2020-11-20T15:20:56.339Z</time>
      </trkpt>
      <trkpt lat="45.21405" lon="5.73394">
        <ele>748.1</ele>
        <time>2020-11-20T15:20:57.518Z</time>
      </trkpt>
      <trkpt lat="45.2142" lon="5.73423">
        <ele>750</ele>
        <time>2020-11-20T15:21:16.463Z</time>
      </trkpt>
      <trkpt lat="45.21436" lon="5.73452">
        <ele>754.9</ele>
        <time>2020-11-20T15:21:52.250Z</time>
      </trkpt>
      <trkpt lat="45.21448" lon="5.73479">
        <ele>756.8</ele>
        <time>2020-11-20T15:22:10.415Z</time>
      </trkpt>
      <trkpt lat="45.21461" lon="5.73492">
        <ele>763.7</ele>
        <time>2020-11-20T15:22:32.346Z</time>
      </trkpt>
      <trkpt lat="45.21469" lon="5.73524">
        <ele>758</ele>
        <time>2020-11-20T15:22:35.408Z</time>
      </trkpt>
      <trkpt lat="45.21476" lon="5.73541">
        <ele>757</ele>
        <time>2020-11-20T15:22:37.184Z</time>
      </trkpt>
      <trkpt lat="45.21486" lon="5.73551">
        <ele>761.6</ele>
        <time>2020-11-20T15:22:54.054Z</time>
      </trkpt>
      <trkpt lat="45.21496" lon="5.73554">
        <ele>769.1</ele>
        <time>2020-11-20T15:23:08.150Z</time>
      </trkpt>
      <trkpt lat="45.21503" lon="5.73561">
        <ele>772.1</ele>
        <time>2020-11-20T15:23:19.959Z</time>
      </trkpt>
      <trkpt lat="45.21505" lon="5.73566">
        <ele>771.6</ele>
        <time>2020-11-20T15:23:20.477Z</time>
      </trkpt>
      <trkpt lat="45.21508" lon="5.73593">
        <ele>762.5</ele>
        <time>2020-11-20T15:23:22.942Z</time>
      </trkpt>
      <trkpt lat="45.21511" lon="5.73598">
        <ele>762.4</ele>
        <time>2020-11-20T15:23:23.766Z</time>
      </trkpt>
      <trkpt lat="45.21513" lon="5.73598">
        <ele>763.9</ele>
        <time>2020-11-20T15:23:26.524Z</time>
      </trkpt>
      <trkpt lat="45.21511" lon="5.73587">
        <ele>767.6</ele>
        <time>2020-11-20T15:23:37.561Z</time>
      </trkpt>
      <trkpt lat="45.21513" lon="5.73584">
        <ele>770.5</ele>
        <time>2020-11-20T15:23:41.574Z</time>
      </trkpt>
      <trkpt lat="45.21515" lon="5.73575">
        <ele>775.5</ele>
        <time>2020-11-20T15:23:50.743Z</time>
      </trkpt>
      <trkpt lat="45.21521" lon="5.73593">
        <ele>772.3</ele>
        <time>2020-11-20T15:23:52.538Z</time>
      </trkpt>
      <trkpt lat="45.21538" lon="5.73613">
        <ele>775.5</ele>
        <time>2020-11-20T15:24:22.989Z</time>
      </trkpt>
      <trkpt lat="45.21539" lon="5.73611">
        <ele>777.2</ele>
        <time>2020-11-20T15:24:25.372Z</time>
      </trkpt>
      <trkpt lat="45.21536" lon="5.73603">
        <ele>778.8</ele>
        <time>2020-11-20T15:24:34.177Z</time>
      </trkpt>
      <trkpt lat="45.21536" lon="5.73593">
        <ele>783.6</ele>
        <time>2020-11-20T15:24:43.892Z</time>
      </trkpt>
      <trkpt lat="45.21543" lon="5.73607">
        <ele>782.1</ele>
        <time>2020-11-20T15:24:45.440Z</time>
      </trkpt>
      <trkpt lat="45.21538" lon="5.73567">
        <ele>795.7</ele>
        <time>2020-11-20T15:25:24.908Z</time>
      </trkpt>
      <trkpt lat="45.2154" lon="5.73559">
        <ele>800</ele>
        <time>2020-11-20T15:25:33.156Z</time>
      </trkpt>
      <trkpt lat="45.21543" lon="5.73557">
        <ele>803</ele>
        <time>2020-11-20T15:25:37.727Z</time>
      </trkpt>
      <trkpt lat="45.2155" lon="5.73571">
        <ele>803.2</ele>
        <time>2020-11-20T15:25:42.823Z</time>
      </trkpt>
      <trkpt lat="45.21561" lon="5.73585">
        <ele>806.3</ele>
        <time>2020-11-20T15:26:03.198Z</time>
      </trkpt>
      <trkpt lat="45.21563" lon="5.73573">
        <ele>812.2</ele>
        <time>2020-11-20T15:26:15.178Z</time>
      </trkpt>
      <trkpt lat="45.21556" lon="5.7355">
        <ele>814.9</ele>
        <time>2020-11-20T15:26:39.520Z</time>
      </trkpt>
      <trkpt lat="45.21556" lon="5.73518">
        <ele>826</ele>
        <time>2020-11-20T15:27:10.609Z</time>
      </trkpt>
      <trkpt lat="45.21558" lon="5.73511">
        <ele>829.9</ele>
        <time>2020-11-20T15:27:17.947Z</time>
      </trkpt>
      <trkpt lat="45.21557" lon="5.73503">
        <ele>831.9</ele>
        <time>2020-11-20T15:27:25.841Z</time>
      </trkpt>
      <trkpt lat="45.21546" lon="5.7348">
        <ele>832.3</ele>
        <time>2020-11-20T15:27:34.455Z</time>
      </trkpt>
      <trkpt lat="45.21544" lon="5.73475">
        <ele>832.7</ele>
        <time>2020-11-20T15:27:38.176Z</time>
      </trkpt>
      <trkpt lat="45.21545" lon="5.73474">
        <ele>833.7</ele>
        <time>2020-11-20T15:27:39.863Z</time>
      </trkpt>
      <trkpt lat="45.21549" lon="5.73476">
        <ele>835.8</ele>
        <time>2020-11-20T15:27:45.711Z</time>
      </trkpt>
      <trkpt lat="45.21554" lon="5.73474">
        <ele>840</ele>
        <time>2020-11-20T15:27:52.876Z</time>
      </trkpt>
      <trkpt lat="45.21557" lon="5.73475">
        <ele>841.7</ele>
        <time>2020-11-20T15:27:57.126Z</time>
      </trkpt>
      <trkpt lat="45.21567" lon="5.73485">
        <ele>845.1</ele>
        <time>2020-11-20T15:28:13.996Z</time>
      </trkpt>
      <trkpt lat="45.21572" lon="5.73493">
        <ele>845.7</ele>
        <time>2020-11-20T15:28:19.841Z</time>
      </trkpt>
      <trkpt lat="45.21582" lon="5.73518">
        <ele>844.2</ele>
        <time>2020-11-20T15:28:22.433Z</time>
      </trkpt>
      <trkpt lat="45.21589" lon="5.73531">
        <ele>843.7</ele>
        <time>2020-11-20T15:28:24.075Z</time>
      </trkpt>
      <trkpt lat="45.21596" lon="5.73543">
        <ele>843.1</ele>
        <time>2020-11-20T15:28:25.491Z</time>
        <extensions>
          <visugpx:TrkExtension xmlns:visugpx="https://www.visugpx.com/editgpx/">
            <visugpx:node>44</visugpx:node>
            </visugpx:TrkExtension>
        </extensions>
      </trkpt>
      <trkpt lat="45.21599" lon="5.73546">
        <ele>843.6</ele>
        <time>2020-11-20T15:28:30.552Z</time>
      </trkpt>
      <trkpt lat="45.21626" lon="5.73579">
        <ele>845.4</ele>
        <time>2020-11-20T15:28:52.903Z</time>
      </trkpt>
      <trkpt lat="45.21629" lon="5.73578">
        <ele>847.2</ele>
        <time>2020-11-20T15:28:57.153Z</time>
      </trkpt>
      <trkpt lat="45.21619" lon="5.73551">
        <ele>851.5</ele>
        <time>2020-11-20T15:29:26.789Z</time>
      </trkpt>
      <trkpt lat="45.21615" lon="5.73535">
        <ele>854.9</ele>
        <time>2020-11-20T15:29:43.283Z</time>
      </trkpt>
      <trkpt lat="45.21615" lon="5.73531">
        <ele>856.3</ele>
        <time>2020-11-20T15:29:47.169Z</time>
      </trkpt>
      <trkpt lat="45.21617" lon="5.73531">
        <ele>857.2</ele>
        <time>2020-11-20T15:29:49.927Z</time>
      </trkpt>
      <trkpt lat="45.21631" lon="5.73551">
        <ele>857.2</ele>
        <time>2020-11-20T15:29:57.029Z</time>
      </trkpt>
      <trkpt lat="45.21643" lon="5.7356">
        <ele>859.9</ele>
        <time>2020-11-20T15:30:15.747Z</time>
      </trkpt>
      <trkpt lat="45.21652" lon="5.73563">
        <ele>863.1</ele>
        <time>2020-11-20T15:30:28.496Z</time>
      </trkpt>
      <trkpt lat="45.21665" lon="5.7356">
        <ele>870.3</ele>
        <time>2020-11-20T15:30:46.661Z</time>
      </trkpt>
      <trkpt lat="45.21696" lon="5.73563">
        <ele>880.8</ele>
        <time>2020-11-20T15:31:29.514Z</time>
      </trkpt>
      <trkpt lat="45.21705" lon="5.73561">
        <ele>884.9</ele>
        <time>2020-11-20T15:31:42.077Z</time>
      </trkpt>
      <trkpt lat="45.21688" lon="5.73543">
        <ele>885.2</ele>
        <time>2020-11-20T15:31:50.789Z</time>
      </trkpt>
      <trkpt lat="45.21667" lon="5.7353">
        <ele>881.7</ele>
        <time>2020-11-20T15:31:53.721Z</time>
      </trkpt>
      <trkpt lat="45.21672" lon="5.73527">
        <ele>884.7</ele>
        <time>2020-11-20T15:32:01.208Z</time>
      </trkpt>
      <trkpt lat="45.21689" lon="5.73527">
        <ele>891.5</ele>
        <time>2020-11-20T15:32:24.653Z</time>
      </trkpt>
      <trkpt lat="45.21713" lon="5.73528">
        <ele>900.6</ele>
        <time>2020-11-20T15:32:57.767Z</time>
      </trkpt>
      <trkpt lat="45.21721" lon="5.73533">
        <ele>901.8</ele>
        <time>2020-11-20T15:33:09.822Z</time>
      </trkpt>
      <trkpt lat="45.21732" lon="5.73542">
        <ele>902.5</ele>
        <time>2020-11-20T15:33:18.036Z</time>
      </trkpt>
      <trkpt lat="45.21738" lon="5.73545">
        <ele>903.5</ele>
        <time>2020-11-20T15:33:26.810Z</time>
      </trkpt>
      <trkpt lat="45.21758" lon="5.73547">
        <ele>909.7</ele>
        <time>2020-11-20T15:33:54.461Z</time>
      </trkpt>
      <trkpt lat="45.21759" lon="5.73548">
        <ele>909.6</ele>
        <time>2020-11-20T15:33:54.617Z</time>
        <extensions>
          <visugpx:TrkExtension xmlns:visugpx="https://www.visugpx.com/editgpx/">
            <visugpx:node>45</visugpx:node>
            </visugpx:TrkExtension>
        </extensions>
      </trkpt>
      <trkpt lat="45.21773" lon="5.73557">
        <ele>910.3</ele>
        <time>2020-11-20T15:34:03.954Z</time>
      </trkpt>
      <trkpt lat="45.21795" lon="5.73589">
        <ele>904.1</ele>
        <time>2020-11-20T15:34:07.986Z</time>
      </trkpt>
      <trkpt lat="45.21824" lon="5.73615">
        <ele>904.3</ele>
        <time>2020-11-20T15:34:20.941Z</time>
      </trkpt>
      <trkpt lat="45.21841" lon="5.73638">
        <ele>903.6</ele>
        <time>2020-11-20T15:34:24.763Z</time>
      </trkpt>
      <trkpt lat="45.21847" lon="5.7365">
        <ele>901.9</ele>
        <time>2020-11-20T15:34:26.090Z</time>
      </trkpt>
      <trkpt lat="45.2188" lon="5.73684">
        <ele>901.6</ele>
        <time>2020-11-20T15:34:34.776Z</time>
      </trkpt>
      <trkpt lat="45.21884" lon="5.7369">
        <ele>900.4</ele>
        <time>2020-11-20T15:34:35.521Z</time>
        <extensions>
          <visugpx:TrkExtension xmlns:visugpx="https://www.visugpx.com/editgpx/">
            <visugpx:node>46</visugpx:node>
            </visugpx:TrkExtension>
        </extensions>
      </trkpt>
      <trkpt lat="45.21889" lon="5.73697">
        <ele>899.1</ele>
        <time>2020-11-20T15:34:36.420Z</time>
      </trkpt>
      <trkpt lat="45.21903" lon="5.73707">
        <ele>899.6</ele>
        <time>2020-11-20T15:34:44.338Z</time>
      </trkpt>
      <trkpt lat="45.2192" lon="5.73713">
        <ele>902.7</ele>
        <time>2020-11-20T15:35:08.497Z</time>
      </trkpt>
      <trkpt lat="45.21949" lon="5.73738">
        <ele>900.1</ele>
        <time>2020-11-20T15:35:12.840Z</time>
      </trkpt>
      <trkpt lat="45.21968" lon="5.73786">
        <ele>886.7</ele>
        <time>2020-11-20T15:35:17.804Z</time>
      </trkpt>
      <trkpt lat="45.21978" lon="5.738">
        <ele>884.9</ele>
        <time>2020-11-20T15:35:19.602Z</time>
      </trkpt>
      <trkpt lat="45.22068" lon="5.7387">
        <ele>877.1</ele>
        <time>2020-11-20T15:35:32.739Z</time>
      </trkpt>
      <trkpt lat="45.22092" lon="5.7388">
        <ele>879.7</ele>
        <time>2020-11-20T15:35:56.926Z</time>
      </trkpt>
      <trkpt lat="45.2212" lon="5.73888">
        <ele>885.8</ele>
        <time>2020-11-20T15:36:36.317Z</time>
      </trkpt>
      <trkpt lat="45.22146" lon="5.73896">
        <ele>890.5</ele>
        <time>2020-11-20T15:37:13.007Z</time>
      </trkpt>
      <trkpt lat="45.22172" lon="5.73912">
        <ele>891.3</ele>
        <time>2020-11-20T15:37:26.673Z</time>
      </trkpt>
      <trkpt lat="45.22193" lon="5.7393">
        <ele>892.1</ele>
        <time>2020-11-20T15:37:39.181Z</time>
      </trkpt>
      <trkpt lat="45.22227" lon="5.73967">
        <ele>889.1</ele>
        <time>2020-11-20T15:37:44.664Z</time>
      </trkpt>
      <trkpt lat="45.22238" lon="5.73976">
        <ele>888.9</ele>
        <time>2020-11-20T15:37:47.089Z</time>
      </trkpt>
      <trkpt lat="45.22262" lon="5.73985">
        <ele>892.3</ele>
        <time>2020-11-20T15:38:21.323Z</time>
      </trkpt>
      <trkpt lat="45.223" lon="5.74007">
        <ele>894.6</ele>
        <time>2020-11-20T15:38:48.039Z</time>
      </trkpt>
      <trkpt lat="45.2232" lon="5.74013">
        <ele>899</ele>
        <time>2020-11-20T15:39:16.231Z</time>
      </trkpt>
      <trkpt lat="45.22322" lon="5.74014">
        <ele>899.3</ele>
        <time>2020-11-20T15:39:19.155Z</time>
        <extensions>
          <visugpx:TrkExtension xmlns:visugpx="https://www.visugpx.com/editgpx/">
            <visugpx:node>47</visugpx:node>
            </visugpx:TrkExtension>
        </extensions>
      </trkpt>
      <trkpt lat="45.2234" lon="5.74022">
        <ele>902.5</ele>
        <time>2020-11-20T15:39:45.168Z</time>
      </trkpt>
      <trkpt lat="45.22363" lon="5.74041">
        <ele>903.4</ele>
        <time>2020-11-20T15:39:58.953Z</time>
      </trkpt>
      <trkpt lat="45.22388" lon="5.74067">
        <ele>902.8</ele>
        <time>2020-11-20T15:40:04.619Z</time>
      </trkpt>
      <trkpt lat="45.22392" lon="5.7407">
        <ele>903</ele>
        <time>2020-11-20T15:40:07.337Z</time>
      </trkpt>
      <trkpt lat="45.22393" lon="5.74068">
        <ele>903.9</ele>
        <time>2020-11-20T15:40:09.719Z</time>
      </trkpt>
      <trkpt lat="45.22397" lon="5.74065">
        <ele>905.9</ele>
        <time>2020-11-20T15:40:15.958Z</time>
      </trkpt>
      <trkpt lat="45.22401" lon="5.74065">
        <ele>907</ele>
        <time>2020-11-20T15:40:21.475Z</time>
      </trkpt>
      <trkpt lat="45.22419" lon="5.7408">
        <ele>907.3</ele>
        <time>2020-11-20T15:40:30.069Z</time>
      </trkpt>
      <trkpt lat="45.22445" lon="5.74095">
        <ele>906.7</ele>
        <time>2020-11-20T15:40:35.081Z</time>
      </trkpt>
      <trkpt lat="45.22453" lon="5.74099">
        <ele>906.9</ele>
        <time>2020-11-20T15:40:38.949Z</time>
      </trkpt>
      <trkpt lat="45.22459" lon="5.74102">
        <ele>907.1</ele>
        <time>2020-11-20T15:40:42.143Z</time>
      </trkpt>
      <trkpt lat="45.22479" lon="5.74109">
        <ele>908.9</ele>
        <time>2020-11-20T15:40:59.199Z</time>
      </trkpt>
      <trkpt lat="45.22492" lon="5.7411">
        <ele>911.1</ele>
        <time>2020-11-20T15:41:17.155Z</time>
      </trkpt>
      <trkpt lat="45.225" lon="5.7411">
        <ele>912.6</ele>
        <time>2020-11-20T15:41:28.188Z</time>
      </trkpt>
      <trkpt lat="45.22509" lon="5.7411">
        <ele>913.4</ele>
        <time>2020-11-20T15:41:35.739Z</time>
      </trkpt>
      <trkpt lat="45.22527" lon="5.7411">
        <ele>915.2</ele>
        <time>2020-11-20T15:41:52.476Z</time>
      </trkpt>
      <trkpt lat="45.22549" lon="5.74104">
        <ele>918.5</ele>
        <time>2020-11-20T15:42:23.372Z</time>
      </trkpt>
      <trkpt lat="45.22559" lon="5.74099">
        <ele>920.5</ele>
        <time>2020-11-20T15:42:37.993Z</time>
      </trkpt>
      <trkpt lat="45.2257" lon="5.74094">
        <ele>922.5</ele>
        <time>2020-11-20T15:42:53.922Z</time>
      </trkpt>
      <trkpt lat="45.2258" lon="5.7409">
        <ele>924.3</ele>
        <time>2020-11-20T15:43:08.251Z</time>
      </trkpt>
      <trkpt lat="45.22598" lon="5.7409">
        <ele>925.6</ele>
        <time>2020-11-20T15:43:21.422Z</time>
      </trkpt>
      <trkpt lat="45.22731" lon="5.74113">
        <ele>935.8</ele>
        <time>2020-11-20T15:45:02.493Z</time>
      </trkpt>
      <trkpt lat="45.22744" lon="5.74118">
        <ele>936.9</ele>
        <time>2020-11-20T15:45:13.118Z</time>
      </trkpt>
      <trkpt lat="45.22769" lon="5.74133">
        <ele>940</ele>
        <time>2020-11-20T15:45:42.414Z</time>
      </trkpt>
      <trkpt lat="45.2279" lon="5.74142">
        <ele>944.4</ele>
        <time>2020-11-20T15:46:12.666Z</time>
      </trkpt>
      <trkpt lat="45.22825" lon="5.7415">
        <ele>953.8</ele>
        <time>2020-11-20T15:47:01.558Z</time>
      </trkpt>
      <trkpt lat="45.22894" lon="5.74183">
        <ele>962.9</ele>
        <time>2020-11-20T15:48:31.044Z</time>
      </trkpt>
      <trkpt lat="45.22905" lon="5.74186">
        <ele>965</ele>
        <time>2020-11-20T15:48:46.492Z</time>
        <extensions>
          <visugpx:TrkExtension xmlns:visugpx="https://www.visugpx.com/editgpx/">
            <visugpx:node>48</visugpx:node>
            </visugpx:TrkExtension>
        </extensions>
      </trkpt>
      <trkpt lat="45.22911" lon="5.74188">
        <ele>966</ele>
        <time>2020-11-20T15:48:54.992Z</time>
      </trkpt>
      <trkpt lat="45.22955" lon="5.74214">
        <ele>969.2</ele>
        <time>2020-11-20T15:49:28.559Z</time>
      </trkpt>
      <trkpt lat="45.22966" lon="5.74219">
        <ele>970.8</ele>
        <time>2020-11-20T15:49:44.488Z</time>
      </trkpt>
      <trkpt lat="45.23024" lon="5.74233">
        <ele>983.2</ele>
        <time>2020-11-20T15:51:05.626Z</time>
      </trkpt>
      <trkpt lat="45.231" lon="5.74267">
        <ele>989.1</ele>
        <time>2020-11-20T15:52:04.760Z</time>
      </trkpt>
      <trkpt lat="45.23147" lon="5.74285">
        <ele>990.3</ele>
        <time>2020-11-20T15:52:27.242Z</time>
      </trkpt>
      <trkpt lat="45.23235" lon="5.74313">
        <ele>996.8</ele>
        <time>2020-11-20T15:53:33.160Z</time>
      </trkpt>
      <trkpt lat="45.23252" lon="5.74322">
        <ele>997.4</ele>
        <time>2020-11-20T15:53:42.466Z</time>
      </trkpt>
      <trkpt lat="45.23321" lon="5.74376">
        <ele>1003.2</ele>
        <time>2020-11-20T15:54:40.741Z</time>
      </trkpt>
      <trkpt lat="45.23338" lon="5.7438">
        <ele>1006.2</ele>
        <time>2020-11-20T15:55:04.506Z</time>
      </trkpt>
      <trkpt lat="45.23372" lon="5.74376">
        <ele>1009.2</ele>
        <time>2020-11-20T15:55:32.891Z</time>
      </trkpt>
      <trkpt lat="45.23382" lon="5.74372">
        <ele>1010.2</ele>
        <time>2020-11-20T15:55:42.211Z</time>
      </trkpt>
      <trkpt lat="45.23382" lon="5.74368">
        <ele>1010.4</ele>
        <time>2020-11-20T15:55:44.253Z</time>
      </trkpt>
      <trkpt lat="45.23372" lon="5.74347">
        <ele>1011.4</ele>
        <time>2020-11-20T15:55:55.872Z</time>
      </trkpt>
      <trkpt lat="45.2337" lon="5.74334">
        <ele>1012.4</ele>
        <time>2020-11-20T15:56:05.196Z</time>
      </trkpt>
      <trkpt lat="45.23372" lon="5.7432">
        <ele>1014.3</ele>
        <time>2020-11-20T15:56:19.070Z</time>
      </trkpt>
      <trkpt lat="45.23374" lon="5.74307">
        <ele>1016.1</ele>
        <time>2020-11-20T15:56:31.993Z</time>
      </trkpt>
      <trkpt lat="45.23377" lon="5.74294">
        <ele>1017.9</ele>
        <time>2020-11-20T15:56:45.280Z</time>
      </trkpt>
      <trkpt lat="45.23382" lon="5.74276">
        <ele>1020.2</ele>
        <time>2020-11-20T15:57:04.072Z</time>
        <extensions>
          <visugpx:TrkExtension xmlns:visugpx="https://www.visugpx.com/editgpx/">
            <visugpx:node>49</visugpx:node>
            </visugpx:TrkExtension>
        </extensions>
      </trkpt>
      <trkpt lat="45.23387" lon="5.74261">
        <ele>1022</ele>
        <time>2020-11-20T15:57:20.190Z</time>
      </trkpt>
      <trkpt lat="45.23389" lon="5.74254">
        <ele>1022.8</ele>
        <time>2020-11-20T15:57:27.527Z</time>
      </trkpt>
      <trkpt lat="45.23337" lon="5.74219">
        <ele>1025.4</ele>
        <time>2020-11-20T15:58:02.404Z</time>
      </trkpt>
      <trkpt lat="45.23302" lon="5.74206">
        <ele>1023.5</ele>
        <time>2020-11-20T15:58:07.156Z</time>
      </trkpt>
      <trkpt lat="45.23283" lon="5.74192">
        <ele>1023</ele>
        <time>2020-11-20T15:58:10.893Z</time>
      </trkpt>
      <trkpt lat="45.23263" lon="5.74165">
        <ele>1024.2</ele>
        <time>2020-11-20T15:58:27.292Z</time>
      </trkpt>
      <trkpt lat="45.23231" lon="5.74135">
        <ele>1024.4</ele>
        <time>2020-11-20T15:58:41.690Z</time>
      </trkpt>
      <trkpt lat="45.23224" lon="5.74123">
        <ele>1024.6</ele>
        <time>2020-11-20T15:58:46.400Z</time>
      </trkpt>
      <trkpt lat="45.23221" lon="5.74102">
        <ele>1025.1</ele>
        <time>2020-11-20T15:58:54.147Z</time>
      </trkpt>
      <trkpt lat="45.23224" lon="5.74071">
        <ele>1025.1</ele>
        <time>2020-11-20T15:59:02.026Z</time>
      </trkpt>
      <trkpt lat="45.23228" lon="5.74045">
        <ele>1023.8</ele>
        <time>2020-11-20T15:59:04.425Z</time>
      </trkpt>
      <trkpt lat="45.23226" lon="5.74037">
        <ele>1023.4</ele>
        <time>2020-11-20T15:59:05.191Z</time>
      </trkpt>
      <trkpt lat="45.23196" lon="5.74008">
        <ele>1022.6</ele>
        <time>2020-11-20T15:59:11.622Z</time>
      </trkpt>
      <trkpt lat="45.23184" lon="5.74">
        <ele>1022.6</ele>
        <time>2020-11-20T15:59:16.362Z</time>
      </trkpt>
      <trkpt lat="45.23159" lon="5.7399">
        <ele>1021.8</ele>
        <time>2020-11-20T15:59:20.544Z</time>
      </trkpt>
      <trkpt lat="45.23124" lon="5.73983">
        <ele>1021.4</ele>
        <time>2020-11-20T15:59:27.685Z</time>
      </trkpt>
      <trkpt lat="45.23091" lon="5.73981">
        <ele>1021.6</ele>
        <time>2020-11-20T15:59:40.189Z</time>
      </trkpt>
      <trkpt lat="45.23086" lon="5.73979">
        <ele>1021.4</ele>
        <time>2020-11-20T15:59:40.963Z</time>
      </trkpt>
      <trkpt lat="45.23078" lon="5.73971">
        <ele>1020.2</ele>
        <time>2020-11-20T15:59:42.216Z</time>
      </trkpt>
      <trkpt lat="45.23067" lon="5.73967">
        <ele>1019</ele>
        <time>2020-11-20T15:59:43.669Z</time>
      </trkpt>
      <trkpt lat="45.2306" lon="5.73967">
        <ele>1018.6</ele>
        <time>2020-11-20T15:59:44.554Z</time>
      </trkpt>
      <trkpt lat="45.23039" lon="5.73978">
        <ele>1018.1</ele>
        <time>2020-11-20T15:59:48.507Z</time>
        <extensions>
          <visugpx:TrkExtension xmlns:visugpx="https://www.visugpx.com/editgpx/">
            <visugpx:node>50</visugpx:node>
            </visugpx:TrkExtension>
        </extensions>
      </trkpt>
      <trkpt lat="45.23037" lon="5.73979">
        <ele>1018</ele>
        <time>2020-11-20T15:59:48.799Z</time>
      </trkpt>
      <trkpt lat="45.23025" lon="5.73979">
        <ele>1017.1</ele>
        <time>2020-11-20T15:59:50.335Z</time>
      </trkpt>
      <trkpt lat="45.23011" lon="5.73975">
        <ele>1015.9</ele>
        <time>2020-11-20T15:59:52.163Z</time>
      </trkpt>
      <trkpt lat="45.22995" lon="5.73972">
        <ele>1015.1</ele>
        <time>2020-11-20T15:59:54.337Z</time>
      </trkpt>
      <trkpt lat="45.22974" lon="5.73966">
        <ele>1015.8</ele>
        <time>2020-11-20T16:00:05.268Z</time>
      </trkpt>
      <trkpt lat="45.22968" lon="5.73963">
        <ele>1016.1</ele>
        <time>2020-11-20T16:00:09.173Z</time>
      </trkpt>
      <trkpt lat="45.22955" lon="5.73947">
        <ele>1017.5</ele>
        <time>2020-11-20T16:00:22.712Z</time>
      </trkpt>
      <trkpt lat="45.22946" lon="5.73927">
        <ele>1019.5</ele>
        <time>2020-11-20T16:00:41.936Z</time>
      </trkpt>
      <trkpt lat="45.22944" lon="5.73898">
        <ele>1019</ele>
        <time>2020-11-20T16:00:45.478Z</time>
      </trkpt>
      <trkpt lat="45.22944" lon="5.73882">
        <ele>1017.8</ele>
        <time>2020-11-20T16:00:46.921Z</time>
      </trkpt>
      <trkpt lat="45.22943" lon="5.73878">
        <ele>1017.6</ele>
        <time>2020-11-20T16:00:47.303Z</time>
      </trkpt>
      <trkpt lat="45.22942" lon="5.73871">
        <ele>1017.2</ele>
        <time>2020-11-20T16:00:47.947Z</time>
      </trkpt>
      <trkpt lat="45.2294" lon="5.73864">
        <ele>1017</ele>
        <time>2020-11-20T16:00:48.747Z</time>
      </trkpt>
      <trkpt lat="45.22934" lon="5.73858">
        <ele>1017.3</ele>
        <time>2020-11-20T16:00:52.942Z</time>
      </trkpt>
      <trkpt lat="45.22916" lon="5.73861">
        <ele>1020</ele>
        <time>2020-11-20T16:01:17.937Z</time>
      </trkpt>
      <trkpt lat="45.2288" lon="5.73877">
        <ele>1020.6</ele>
        <time>2020-11-20T16:01:33.725Z</time>
      </trkpt>
      <trkpt lat="45.22862" lon="5.73882">
        <ele>1020.2</ele>
        <time>2020-11-20T16:01:36.984Z</time>
      </trkpt>
      <trkpt lat="45.22854" lon="5.73882">
        <ele>1020</ele>
        <time>2020-11-20T16:01:38.355Z</time>
      </trkpt>
      <trkpt lat="45.2283" lon="5.73875">
        <ele>1019.9</ele>
        <time>2020-11-20T16:01:46.600Z</time>
      </trkpt>
      <trkpt lat="45.22811" lon="5.73863">
        <ele>1020.8</ele>
        <time>2020-11-20T16:01:58.919Z</time>
      </trkpt>
      <trkpt lat="45.22771" lon="5.73848">
        <ele>1023.4</ele>
        <time>2020-11-20T16:02:27.162Z</time>
      </trkpt>
      <trkpt lat="45.22748" lon="5.73832">
        <ele>1026.7</ele>
        <time>2020-11-20T16:03:00.288Z</time>
      </trkpt>
      <trkpt lat="45.22732" lon="5.73824">
        <ele>1025</ele>
        <time>2020-11-20T16:03:02.459Z</time>
      </trkpt>
      <trkpt lat="45.2272" lon="5.73819">
        <ele>1024.3</ele>
        <time>2020-11-20T16:03:04.055Z</time>
      </trkpt>
      <trkpt lat="45.22711" lon="5.73813">
        <ele>1023.6</ele>
        <time>2020-11-20T16:03:05.328Z</time>
      </trkpt>
      <trkpt lat="45.227" lon="5.73809">
        <ele>1023.5</ele>
        <time>2020-11-20T16:03:07.700Z</time>
      </trkpt>
      <trkpt lat="45.22693" lon="5.7381">
        <ele>1023.9</ele>
        <time>2020-11-20T16:03:12.305Z</time>
      </trkpt>
      <trkpt lat="45.22687" lon="5.73809">
        <ele>1024</ele>
        <time>2020-11-20T16:03:14.851Z</time>
      </trkpt>
      <trkpt lat="45.22664" lon="5.73787">
        <ele>1023.3</ele>
        <time>2020-11-20T16:03:19.592Z</time>
      </trkpt>
      <trkpt lat="45.22653" lon="5.73782">
        <ele>1021.5</ele>
        <time>2020-11-20T16:03:21.070Z</time>
      </trkpt>
      <trkpt lat="45.22643" lon="5.73774">
        <ele>1020.3</ele>
        <time>2020-11-20T16:03:22.540Z</time>
      </trkpt>
      <trkpt lat="45.22639" lon="5.73766">
        <ele>1020.2</ele>
        <time>2020-11-20T16:03:23.880Z</time>
      </trkpt>
      <trkpt lat="45.22632" lon="5.7376">
        <ele>1020</ele>
        <time>2020-11-20T16:03:25.290Z</time>
      </trkpt>
      <trkpt lat="45.22626" lon="5.73756">
        <ele>1020</ele>
        <time>2020-11-20T16:03:27.660Z</time>
      </trkpt>
      <trkpt lat="45.22618" lon="5.73746">
        <ele>1019.1</ele>
        <time>2020-11-20T16:03:29.025Z</time>
      </trkpt>
      <trkpt lat="45.22597" lon="5.73732">
        <ele>1015.3</ele>
        <time>2020-11-20T16:03:31.994Z</time>
      </trkpt>
      <trkpt lat="45.22589" lon="5.73724">
        <ele>1013.6</ele>
        <time>2020-11-20T16:03:33.247Z</time>
      </trkpt>
      <trkpt lat="45.22578" lon="5.73719">
        <ele>1011.7</ele>
        <time>2020-11-20T16:03:34.725Z</time>
      </trkpt>
      <trkpt lat="45.22567" lon="5.73717">
        <ele>1009.3</ele>
        <time>2020-11-20T16:03:36.145Z</time>
      </trkpt>
      <trkpt lat="45.2256" lon="5.73707">
        <ele>1006.5</ele>
        <time>2020-11-20T16:03:37.416Z</time>
      </trkpt>
      <trkpt lat="45.22548" lon="5.737">
        <ele>1003.7</ele>
        <time>2020-11-20T16:03:39.077Z</time>
      </trkpt>
      <trkpt lat="45.22526" lon="5.73696">
        <ele>1000.2</ele>
        <time>2020-11-20T16:03:41.916Z</time>
      </trkpt>
      <trkpt lat="45.22515" lon="5.73689">
        <ele>998.3</ele>
        <time>2020-11-20T16:03:43.459Z</time>
      </trkpt>
      <trkpt lat="45.22504" lon="5.73688">
        <ele>997</ele>
        <time>2020-11-20T16:03:44.870Z</time>
      </trkpt>
      <trkpt lat="45.22485" lon="5.73698">
        <ele>995.5</ele>
        <time>2020-11-20T16:03:47.464Z</time>
      </trkpt>
      <trkpt lat="45.22475" lon="5.737">
        <ele>994.8</ele>
        <time>2020-11-20T16:03:48.757Z</time>
      </trkpt>
      <trkpt lat="45.22462" lon="5.73698">
        <ele>993.6</ele>
        <time>2020-11-20T16:03:50.431Z</time>
      </trkpt>
      <trkpt lat="45.22447" lon="5.73699">
        <ele>992.4</ele>
        <time>2020-11-20T16:03:52.353Z</time>
        <extensions>
          <visugpx:TrkExtension xmlns:visugpx="https://www.visugpx.com/editgpx/">
            <visugpx:node>51</visugpx:node>
            </visugpx:TrkExtension>
        </extensions>
      </trkpt>
      <trkpt lat="45.22444" lon="5.73699">
        <ele>992.2</ele>
        <time>2020-11-20T16:03:52.705Z</time>
      </trkpt>
      <trkpt lat="45.2243" lon="5.73696">
        <ele>990.9</ele>
        <time>2020-11-20T16:03:54.517Z</time>
      </trkpt>
      <trkpt lat="45.224" lon="5.73699">
        <ele>989.6</ele>
        <time>2020-11-20T16:03:58.806Z</time>
      </trkpt>
      <trkpt lat="45.2239" lon="5.73698">
        <ele>989.3</ele>
        <time>2020-11-20T16:04:00.435Z</time>
      </trkpt>
      <trkpt lat="45.22384" lon="5.73692">
        <ele>988.9</ele>
        <time>2020-11-20T16:04:01.383Z</time>
      </trkpt>
      <trkpt lat="45.22374" lon="5.73687">
        <ele>988.5</ele>
        <time>2020-11-20T16:04:02.976Z</time>
      </trkpt>
      <trkpt lat="45.22366" lon="5.73684">
        <ele>988.2</ele>
        <time>2020-11-20T16:04:04.237Z</time>
      </trkpt>
      <trkpt lat="45.22352" lon="5.73683">
        <ele>987.9</ele>
        <time>2020-11-20T16:04:06.739Z</time>
      </trkpt>
      <trkpt lat="45.2228" lon="5.73668">
        <ele>992</ele>
        <time>2020-11-20T16:04:54.208Z</time>
      </trkpt>
      <trkpt lat="45.22248" lon="5.73654">
        <ele>994.6</ele>
        <time>2020-11-20T16:05:19.775Z</time>
      </trkpt>
      <trkpt lat="45.22218" lon="5.73626">
        <ele>996.7</ele>
        <time>2020-11-20T16:05:43.543Z</time>
      </trkpt>
      <trkpt lat="45.22192" lon="5.73591">
        <ele>1004.7</ele>
        <time>2020-11-20T16:06:32.957Z</time>
      </trkpt>
      <trkpt lat="45.22182" lon="5.73582">
        <ele>1008.2</ele>
        <time>2020-11-20T16:06:49.287Z</time>
      </trkpt>
      <trkpt lat="45.22173" lon="5.73565">
        <ele>1009.4</ele>
        <time>2020-11-20T16:07:00.954Z</time>
      </trkpt>
      <trkpt lat="45.22161" lon="5.73555">
        <ele>1011.3</ele>
        <time>2020-11-20T16:07:20.144Z</time>
      </trkpt>
      <trkpt lat="45.22133" lon="5.73542">
        <ele>1015</ele>
        <time>2020-11-20T16:07:56.639Z</time>
      </trkpt>
      <trkpt lat="45.22117" lon="5.73524">
        <ele>1019.3</ele>
        <time>2020-11-20T16:08:24.793Z</time>
      </trkpt>
      <trkpt lat="45.22067" lon="5.7349">
        <ele>1029.6</ele>
        <time>2020-11-20T16:09:41.252Z</time>
      </trkpt>
      <trkpt lat="45.22062" lon="5.73485">
        <ele>1029</ele>
        <time>2020-11-20T16:09:42.035Z</time>
      </trkpt>
      <trkpt lat="45.22043" lon="5.73472">
        <ele>1028.4</ele>
        <time>2020-11-20T16:09:45.517Z</time>
      </trkpt>
      <trkpt lat="45.22023" lon="5.73451">
        <ele>1028.6</ele>
        <time>2020-11-20T16:09:55.119Z</time>
      </trkpt>
      <trkpt lat="45.22014" lon="5.73444">
        <ele>1029.3</ele>
        <time>2020-11-20T16:10:02.404Z</time>
      </trkpt>
      <trkpt lat="45.21968" lon="5.7343">
        <ele>1031.3</ele>
        <time>2020-11-20T16:10:29.953Z</time>
      </trkpt>
      <trkpt lat="45.21963" lon="5.73429">
        <ele>1031.5</ele>
        <time>2020-11-20T16:10:32.787Z</time>
      </trkpt>
      <trkpt lat="45.2195" lon="5.73432">
        <ele>1031.1</ele>
        <time>2020-11-20T16:10:34.917Z</time>
      </trkpt>
      <trkpt lat="45.21944" lon="5.7343">
        <ele>1031.6</ele>
        <time>2020-11-20T16:10:39.758Z</time>
      </trkpt>
      <trkpt lat="45.21941" lon="5.73422">
        <ele>1033.8</ele>
        <time>2020-11-20T16:10:48.562Z</time>
      </trkpt>
      <trkpt lat="45.2193" lon="5.73405">
        <ele>1032.8</ele>
        <time>2020-11-20T16:10:50.547Z</time>
      </trkpt>
      <trkpt lat="45.21906" lon="5.73377">
        <ele>1025.4</ele>
        <time>2020-11-20T16:10:54.523Z</time>
      </trkpt>
      <trkpt lat="45.21891" lon="5.73374">
        <ele>1023.4</ele>
        <time>2020-11-20T16:10:56.462Z</time>
      </trkpt>
      <trkpt lat="45.21876" lon="5.73361">
        <ele>1022</ele>
        <time>2020-11-20T16:10:58.712Z</time>
      </trkpt>
      <trkpt lat="45.21862" lon="5.73357">
        <ele>1022.2</ele>
        <time>2020-11-20T16:11:04.570Z</time>
      </trkpt>
      <trkpt lat="45.21852" lon="5.7335">
        <ele>1023.4</ele>
        <time>2020-11-20T16:11:15.769Z</time>
      </trkpt>
      <trkpt lat="45.21845" lon="5.73344">
        <ele>1025</ele>
        <time>2020-11-20T16:11:27.046Z</time>
      </trkpt>
      <trkpt lat="45.21838" lon="5.73334">
        <ele>1028.1</ele>
        <time>2020-11-20T16:11:40.742Z</time>
      </trkpt>
      <trkpt lat="45.21822" lon="5.73316">
        <ele>1021.6</ele>
        <time>2020-11-20T16:11:43.356Z</time>
      </trkpt>
      <trkpt lat="45.21812" lon="5.73308">
        <ele>1018</ele>
        <time>2020-11-20T16:11:44.825Z</time>
      </trkpt>
      <trkpt lat="45.21807" lon="5.733">
        <ele>1016.1</ele>
        <time>2020-11-20T16:11:45.789Z</time>
      </trkpt>
      <trkpt lat="45.21803" lon="5.73296">
        <ele>1015.2</ele>
        <time>2020-11-20T16:11:46.416Z</time>
        <extensions>
          <visugpx:TrkExtension xmlns:visugpx="https://www.visugpx.com/editgpx/">
            <visugpx:node>52</visugpx:node>
            </visugpx:TrkExtension>
        </extensions>
      </trkpt>
      <trkpt lat="45.21786" lon="5.7328">
        <ele>1013.3</ele>
        <time>2020-11-20T16:11:49.027Z</time>
      </trkpt>
      <trkpt lat="45.21779" lon="5.73275">
        <ele>1013.4</ele>
        <time>2020-11-20T16:11:52.199Z</time>
      </trkpt>
      <trkpt lat="45.2177" lon="5.73265">
        <ele>1014.4</ele>
        <time>2020-11-20T16:12:01.672Z</time>
      </trkpt>
      <trkpt lat="45.21758" lon="5.73246">
        <ele>1017.1</ele>
        <time>2020-11-20T16:12:26.463Z</time>
      </trkpt>
      <trkpt lat="45.21751" lon="5.73239">
        <ele>1017.2</ele>
        <time>2020-11-20T16:12:29.892Z</time>
      </trkpt>
      <trkpt lat="45.21738" lon="5.73216">
        <ele>1010.4</ele>
        <time>2020-11-20T16:12:32.551Z</time>
      </trkpt>
      <trkpt lat="45.21733" lon="5.73206">
        <ele>1008.2</ele>
        <time>2020-11-20T16:12:33.656Z</time>
      </trkpt>
      <trkpt lat="45.2173" lon="5.73212">
        <ele>1007.7</ele>
        <time>2020-11-20T16:12:34.320Z</time>
      </trkpt>
      <trkpt lat="45.21725" lon="5.73221">
        <ele>1006.5</ele>
        <time>2020-11-20T16:12:35.353Z</time>
      </trkpt>
      <trkpt lat="45.21721" lon="5.73222">
        <ele>1005.1</ele>
        <time>2020-11-20T16:12:35.873Z</time>
      </trkpt>
      <trkpt lat="45.21715" lon="5.73215">
        <ele>1003.2</ele>
        <time>2020-11-20T16:12:36.867Z</time>
      </trkpt>
      <trkpt lat="45.21708" lon="5.73207">
        <ele>1001.5</ele>
        <time>2020-11-20T16:12:38.018Z</time>
      </trkpt>
      <trkpt lat="45.21684" lon="5.73171">
        <ele>1000.8</ele>
        <time>2020-11-20T16:12:44.350Z</time>
      </trkpt>
      <trkpt lat="45.21672" lon="5.73143">
        <ele>996.5</ele>
        <time>2020-11-20T16:12:47.305Z</time>
      </trkpt>
      <trkpt lat="45.21666" lon="5.73137">
        <ele>994.8</ele>
        <time>2020-11-20T16:12:48.245Z</time>
      </trkpt>
      <trkpt lat="45.21663" lon="5.73134">
        <ele>993.4</ele>
        <time>2020-11-20T16:12:48.714Z</time>
      </trkpt>
      <trkpt lat="45.21651" lon="5.73131">
        <ele>989.6</ele>
        <time>2020-11-20T16:12:50.274Z</time>
      </trkpt>
      <trkpt lat="45.21626" lon="5.73136">
        <ele>982.8</ele>
        <time>2020-11-20T16:12:53.506Z</time>
      </trkpt>
      <trkpt lat="45.21608" lon="5.73125">
        <ele>977.5</ele>
        <time>2020-11-20T16:12:56.014Z</time>
      </trkpt>
      <trkpt lat="45.21602" lon="5.73124">
        <ele>975.9</ele>
        <time>2020-11-20T16:12:56.788Z</time>
      </trkpt>
      <trkpt lat="45.21593" lon="5.73117">
        <ele>973.9</ele>
        <time>2020-11-20T16:12:58.101Z</time>
      </trkpt>
      <trkpt lat="45.21587" lon="5.73113">
        <ele>972.7</ele>
        <time>2020-11-20T16:12:58.950Z</time>
      </trkpt>
      <trkpt lat="45.21584" lon="5.73117">
        <ele>971.7</ele>
        <time>2020-11-20T16:12:59.477Z</time>
      </trkpt>
      <trkpt lat="45.2158" lon="5.7312">
        <ele>970.2</ele>
        <time>2020-11-20T16:13:00.056Z</time>
      </trkpt>
      <trkpt lat="45.21579" lon="5.73136">
        <ele>968.3</ele>
        <time>2020-11-20T16:13:01.504Z</time>
      </trkpt>
      <trkpt lat="45.21574" lon="5.73144">
        <ele>965.2</ele>
        <time>2020-11-20T16:13:02.469Z</time>
      </trkpt>
      <trkpt lat="45.21575" lon="5.7315">
        <ele>965</ele>
        <time>2020-11-20T16:13:03.072Z</time>
      </trkpt>
      <trkpt lat="45.21573" lon="5.73154">
        <ele>963.5</ele>
        <time>2020-11-20T16:13:03.515Z</time>
      </trkpt>
      <trkpt lat="45.21573" lon="5.73158">
        <ele>963</ele>
        <time>2020-11-20T16:13:03.875Z</time>
      </trkpt>
      <trkpt lat="45.21568" lon="5.73159">
        <ele>960.1</ele>
        <time>2020-11-20T16:13:04.522Z</time>
      </trkpt>
      <trkpt lat="45.21567" lon="5.73164">
        <ele>958.8</ele>
        <time>2020-11-20T16:13:04.990Z</time>
      </trkpt>
      <trkpt lat="45.21567" lon="5.73171">
        <ele>956.9</ele>
        <time>2020-11-20T16:13:05.622Z</time>
      </trkpt>
      <trkpt lat="45.21574" lon="5.73185">
        <ele>956.1</ele>
        <time>2020-11-20T16:13:07.045Z</time>
      </trkpt>
      <trkpt lat="45.21575" lon="5.73185">
        <ele>956.7</ele>
        <time>2020-11-20T16:13:08.425Z</time>
        <extensions>
          <visugpx:TrkExtension xmlns:visugpx="https://www.visugpx.com/editgpx/">
            <visugpx:node>53</visugpx:node>
            </visugpx:TrkExtension>
        </extensions>
      </trkpt>
      <trkpt lat="45.21598" lon="5.73212">
        <ele>958.7</ele>
        <time>2020-11-20T16:13:29.425Z</time>
      </trkpt>
      <trkpt lat="45.21607" lon="5.73224">
        <ele>958.9</ele>
        <time>2020-11-20T16:13:34.609Z</time>
      </trkpt>
      <trkpt lat="45.21634" lon="5.73275">
        <ele>954.4</ele>
        <time>2020-11-20T16:13:40.362Z</time>
      </trkpt>
      <trkpt lat="45.21641" lon="5.73289">
        <ele>952.8</ele>
        <time>2020-11-20T16:13:41.910Z</time>
      </trkpt>
      <trkpt lat="45.21645" lon="5.73301">
        <ele>950.5</ele>
        <time>2020-11-20T16:13:43.107Z</time>
      </trkpt>
      <trkpt lat="45.21651" lon="5.7333">
        <ele>943.2</ele>
        <time>2020-11-20T16:13:45.833Z</time>
      </trkpt>
      <trkpt lat="45.21656" lon="5.73345">
        <ele>941.3</ele>
        <time>2020-11-20T16:13:47.329Z</time>
      </trkpt>
      <trkpt lat="45.21667" lon="5.73378">
        <ele>937.2</ele>
        <time>2020-11-20T16:13:50.621Z</time>
      </trkpt>
      <trkpt lat="45.21674" lon="5.7341">
        <ele>930.8</ele>
        <time>2020-11-20T16:13:53.642Z</time>
      </trkpt>
      <trkpt lat="45.21672" lon="5.73451">
        <ele>913.9</ele>
        <time>2020-11-20T16:13:57.348Z</time>
        <extensions>
          <visugpx:TrkExtension xmlns:visugpx="https://www.visugpx.com/editgpx/">
            <visugpx:node>54</visugpx:node>
            </visugpx:TrkExtension>
        </extensions>
      </trkpt>
      <trkpt lat="45.21672" lon="5.73462">
        <ele>909.5</ele>
        <time>2020-11-20T16:13:58.340Z</time>
      </trkpt>
      <trkpt lat="45.21674" lon="5.7348">
        <ele>903.1</ele>
        <time>2020-11-20T16:13:59.983Z</time>
      </trkpt>
      <trkpt lat="45.21674" lon="5.73484">
        <ele>901.5</ele>
        <time>2020-11-20T16:14:00.344Z</time>
      </trkpt>
      <trkpt lat="45.2167" lon="5.73479">
        <ele>901.8</ele>
        <time>2020-11-20T16:14:03.819Z</time>
      </trkpt>
      <trkpt lat="45.2166" lon="5.73435">
        <ele>914.3</ele>
        <time>2020-11-20T16:14:48.736Z</time>
      </trkpt>
      <trkpt lat="45.21653" lon="5.73416">
        <ele>918</ele>
        <time>2020-11-20T16:15:09.566Z</time>
      </trkpt>
      <trkpt lat="45.21645" lon="5.73402">
        <ele>918</ele>
        <time>2020-11-20T16:15:14.107Z</time>
      </trkpt>
      <trkpt lat="45.21637" lon="5.73393">
        <ele>916.3</ele>
        <time>2020-11-20T16:15:15.414Z</time>
      </trkpt>
      <trkpt lat="45.21609" lon="5.73371">
        <ele>907.3</ele>
        <time>2020-11-20T16:15:19.510Z</time>
      </trkpt>
      <trkpt lat="45.21587" lon="5.73342">
        <ele>902.8</ele>
        <time>2020-11-20T16:15:23.353Z</time>
      </trkpt>
      <trkpt lat="45.21582" lon="5.73338">
        <ele>900.8</ele>
        <time>2020-11-20T16:15:24.088Z</time>
      </trkpt>
      <trkpt lat="45.21572" lon="5.73331">
        <ele>895.5</ele>
        <time>2020-11-20T16:15:25.515Z</time>
      </trkpt>
      <trkpt lat="45.21565" lon="5.73326">
        <ele>892.5</ele>
        <time>2020-11-20T16:15:26.518Z</time>
      </trkpt>
      <trkpt lat="45.21544" lon="5.7332">
        <ele>879.9</ele>
        <time>2020-11-20T16:15:29.260Z</time>
      </trkpt>
      <trkpt lat="45.21518" lon="5.73315">
        <ele>863.6</ele>
        <time>2020-11-20T16:15:32.619Z</time>
      </trkpt>
      <trkpt lat="45.21516" lon="5.73314">
        <ele>862.7</ele>
        <time>2020-11-20T16:15:32.890Z</time>
      </trkpt>
      <trkpt lat="45.21513" lon="5.73306">
        <ele>865</ele>
        <time>2020-11-20T16:15:41.695Z</time>
      </trkpt>
      <trkpt lat="45.21512" lon="5.73301">
        <ele>867</ele>
        <time>2020-11-20T16:15:46.745Z</time>
      </trkpt>
      <trkpt lat="45.21509" lon="5.73281">
        <ele>876.1</ele>
        <time>2020-11-20T16:16:06.611Z</time>
      </trkpt>
      <trkpt lat="45.21508" lon="5.73262">
        <ele>886.1</ele>
        <time>2020-11-20T16:16:25.122Z</time>
      </trkpt>
      <trkpt lat="45.21495" lon="5.73241">
        <ele>887</ele>
        <time>2020-11-20T16:16:37.097Z</time>
      </trkpt>
      <trkpt lat="45.21476" lon="5.7322">
        <ele>879.2</ele>
        <time>2020-11-20T16:16:40.180Z</time>
      </trkpt>
      <trkpt lat="45.21475" lon="5.73196">
        <ele>888.1</ele>
        <time>2020-11-20T16:17:03.538Z</time>
      </trkpt>
      <trkpt lat="45.21472" lon="5.73182">
        <ele>891.5</ele>
        <time>2020-11-20T16:17:17.754Z</time>
      </trkpt>
      <trkpt lat="45.2146" lon="5.73169">
        <ele>887.8</ele>
        <time>2020-11-20T16:17:19.687Z</time>
        <extensions>
          <visugpx:TrkExtension xmlns:visugpx="https://www.visugpx.com/editgpx/">
            <visugpx:node>55</visugpx:node>
            </visugpx:TrkExtension>
        </extensions>
      </trkpt>
      <trkpt lat="45.21458" lon="5.73167">
        <ele>887.1</ele>
        <time>2020-11-20T16:17:20.000Z</time>
      </trkpt>
      <trkpt lat="45.21417" lon="5.73142">
        <ele>867.5</ele>
        <time>2020-11-20T16:17:25.712Z</time>
      </trkpt>
      <trkpt lat="45.2141" lon="5.73129">
        <ele>868.5</ele>
        <time>2020-11-20T16:17:35.205Z</time>
      </trkpt>
      <trkpt lat="45.21395" lon="5.7311">
        <ele>866.3</ele>
        <time>2020-11-20T16:17:37.778Z</time>
      </trkpt>
      <trkpt lat="45.21342" lon="5.7303">
        <ele>851.3</ele>
        <time>2020-11-20T16:17:47.681Z</time>
      </trkpt>
      <trkpt lat="45.21322" lon="5.73008">
        <ele>843</ele>
        <time>2020-11-20T16:17:50.920Z</time>
      </trkpt>
      <trkpt lat="45.21306" lon="5.72984">
        <ele>835.7</ele>
        <time>2020-11-20T16:17:53.900Z</time>
      </trkpt>
      <trkpt lat="45.21276" lon="5.72958">
        <ele>820.1</ele>
        <time>2020-11-20T16:17:58.399Z</time>
      </trkpt>
      <trkpt lat="45.21269" lon="5.72952">
        <ele>816.8</ele>
        <time>2020-11-20T16:17:59.446Z</time>
      </trkpt>
      <trkpt lat="45.21266" lon="5.72951">
        <ele>815.4</ele>
        <time>2020-11-20T16:17:59.841Z</time>
      </trkpt>
      <trkpt lat="45.21257" lon="5.72941">
        <ele>811.4</ele>
        <time>2020-11-20T16:18:01.304Z</time>
      </trkpt>
      <trkpt lat="45.21253" lon="5.72939">
        <ele>809.6</ele>
        <time>2020-11-20T16:18:01.846Z</time>
      </trkpt>
      <trkpt lat="45.2125" lon="5.72935">
        <ele>808.3</ele>
        <time>2020-11-20T16:18:02.373Z</time>
      </trkpt>
      <trkpt lat="45.21244" lon="5.7293">
        <ele>807.3</ele>
        <time>2020-11-20T16:18:03.264Z</time>
      </trkpt>
      <trkpt lat="45.21229" lon="5.72921">
        <ele>805</ele>
        <time>2020-11-20T16:18:05.349Z</time>
      </trkpt>
      <trkpt lat="45.21218" lon="5.72918">
        <ele>803.4</ele>
        <time>2020-11-20T16:18:06.782Z</time>
      </trkpt>
      <trkpt lat="45.21211" lon="5.72915">
        <ele>802.4</ele>
        <time>2020-11-20T16:18:07.718Z</time>
      </trkpt>
      <trkpt lat="45.21205" lon="5.72912">
        <ele>801.3</ele>
        <time>2020-11-20T16:18:08.533Z</time>
      </trkpt>
      <trkpt lat="45.21201" lon="5.72909">
        <ele>800.6</ele>
        <time>2020-11-20T16:18:09.112Z</time>
      </trkpt>
      <trkpt lat="45.21189" lon="5.72906">
        <ele>798.7</ele>
        <time>2020-11-20T16:18:10.672Z</time>
      </trkpt>
      <trkpt lat="45.21181" lon="5.72906">
        <ele>797.5</ele>
        <time>2020-11-20T16:18:11.696Z</time>
      </trkpt>
      <trkpt lat="45.21154" lon="5.72897">
        <ele>792.7</ele>
        <time>2020-11-20T16:18:15.246Z</time>
      </trkpt>
      <trkpt lat="45.21131" lon="5.72884">
        <ele>788.4</ele>
        <time>2020-11-20T16:18:18.415Z</time>
      </trkpt>
      <trkpt lat="45.21102" lon="5.7286">
        <ele>785.2</ele>
        <time>2020-11-20T16:18:22.712Z</time>
      </trkpt>
      <trkpt lat="45.21084" lon="5.72839">
        <ele>785.2</ele>
        <time>2020-11-20T16:18:31.043Z</time>
      </trkpt>
      <trkpt lat="45.21077" lon="5.72828">
        <ele>784.5</ele>
        <time>2020-11-20T16:18:32.380Z</time>
      </trkpt>
      <trkpt lat="45.21065" lon="5.728">
        <ele>780.7</ele>
        <time>2020-11-20T16:18:35.335Z</time>
      </trkpt>
      <trkpt lat="45.21047" lon="5.72756">
        <ele>773.9</ele>
        <time>2020-11-20T16:18:39.924Z</time>
      </trkpt>
      <trkpt lat="45.21041" lon="5.7275">
        <ele>771.8</ele>
        <time>2020-11-20T16:18:40.863Z</time>
      </trkpt>
      <trkpt lat="45.21033" lon="5.72744">
        <ele>768.1</ele>
        <time>2020-11-20T16:18:42.022Z</time>
      </trkpt>
      <trkpt lat="45.21012" lon="5.72745">
        <ele>762.3</ele>
        <time>2020-11-20T16:18:44.711Z</time>
      </trkpt>
      <trkpt lat="45.21002" lon="5.72748">
        <ele>760.1</ele>
        <time>2020-11-20T16:18:46.020Z</time>
      </trkpt>
      <trkpt lat="45.20983" lon="5.72749">
        <ele>754.9</ele>
        <time>2020-11-20T16:18:48.453Z</time>
      </trkpt>
      <trkpt lat="45.2097" lon="5.72731">
        <ele>747.8</ele>
        <time>2020-11-20T16:18:50.778Z</time>
      </trkpt>
      <trkpt lat="45.20955" lon="5.72716">
        <ele>741.3</ele>
        <time>2020-11-20T16:18:53.127Z</time>
      </trkpt>
      <trkpt lat="45.2095" lon="5.7271">
        <ele>739.1</ele>
        <time>2020-11-20T16:18:53.965Z</time>
        <extensions>
          <visugpx:TrkExtension xmlns:visugpx="https://www.visugpx.com/editgpx/">
            <visugpx:node>56</visugpx:node>
            </visugpx:TrkExtension>
        </extensions>
      </trkpt>
      <trkpt lat="45.20941" lon="5.72697">
        <ele>735</ele>
        <time>2020-11-20T16:18:55.609Z</time>
      </trkpt>
      <trkpt lat="45.2092" lon="5.72679">
        <ele>728.1</ele>
        <time>2020-11-20T16:18:58.749Z</time>
      </trkpt>
      <trkpt lat="45.20908" lon="5.72675">
        <ele>725</ele>
        <time>2020-11-20T16:19:00.327Z</time>
      </trkpt>
      <trkpt lat="45.20851" lon="5.72691">
        <ele>713.9</ele>
        <time>2020-11-20T16:19:07.765Z</time>
      </trkpt>
      <trkpt lat="45.20838" lon="5.72692">
        <ele>711.1</ele>
        <time>2020-11-20T16:19:09.431Z</time>
      </trkpt>
      <trkpt lat="45.20836" lon="5.72682">
        <ele>709.4</ele>
        <time>2020-11-20T16:19:10.369Z</time>
      </trkpt>
      <trkpt lat="45.20836" lon="5.72663">
        <ele>706.7</ele>
        <time>2020-11-20T16:19:12.082Z</time>
      </trkpt>
      <trkpt lat="45.20829" lon="5.72658">
        <ele>703.5</ele>
        <time>2020-11-20T16:19:13.085Z</time>
      </trkpt>
      <trkpt lat="45.20815" lon="5.72669">
        <ele>701.1</ele>
        <time>2020-11-20T16:19:15.134Z</time>
      </trkpt>
      <trkpt lat="45.20807" lon="5.72663">
        <ele>697.4</ele>
        <time>2020-11-20T16:19:16.292Z</time>
      </trkpt>
      <trkpt lat="45.20805" lon="5.72642">
        <ele>692.2</ele>
        <time>2020-11-20T16:19:18.203Z</time>
      </trkpt>
      <trkpt lat="45.20799" lon="5.72618">
        <ele>685.2</ele>
        <time>2020-11-20T16:19:20.500Z</time>
      </trkpt>
      <trkpt lat="45.20785" lon="5.72607">
        <ele>678.9</ele>
        <time>2020-11-20T16:19:22.548Z</time>
      </trkpt>
      <trkpt lat="45.2077" lon="5.72603">
        <ele>673.9</ele>
        <time>2020-11-20T16:19:24.502Z</time>
      </trkpt>
      <trkpt lat="45.20768" lon="5.72603">
        <ele>673.4</ele>
        <time>2020-11-20T16:19:24.758Z</time>
      </trkpt>
      <trkpt lat="45.20734" lon="5.72584">
        <ele>661.8</ele>
        <time>2020-11-20T16:19:29.435Z</time>
      </trkpt>
      <trkpt lat="45.20729" lon="5.72583">
        <ele>660.7</ele>
        <time>2020-11-20T16:19:30.082Z</time>
      </trkpt>
      <trkpt lat="45.20721" lon="5.72582">
        <ele>658.9</ele>
        <time>2020-11-20T16:19:31.110Z</time>
      </trkpt>
      <trkpt lat="45.20716" lon="5.72581">
        <ele>657.8</ele>
        <time>2020-11-20T16:19:31.756Z</time>
      </trkpt>
      <trkpt lat="45.20698" lon="5.72567">
        <ele>653</ele>
        <time>2020-11-20T16:19:34.384Z</time>
      </trkpt>
      <trkpt lat="45.20689" lon="5.72571">
        <ele>651.6</ele>
        <time>2020-11-20T16:19:35.591Z</time>
      </trkpt>
      <trkpt lat="45.20676" lon="5.72573">
        <ele>649.3</ele>
        <time>2020-11-20T16:19:37.265Z</time>
      </trkpt>
      <trkpt lat="45.20664" lon="5.72589">
        <ele>647.9</ele>
        <time>2020-11-20T16:19:39.372Z</time>
      </trkpt>
      <trkpt lat="45.20643" lon="5.72606">
        <ele>644.4</ele>
        <time>2020-11-20T16:19:42.467Z</time>
      </trkpt>
      <trkpt lat="45.2064" lon="5.72607">
        <ele>643.8</ele>
        <time>2020-11-20T16:19:42.861Z</time>
      </trkpt>
      <trkpt lat="45.20637" lon="5.72608">
        <ele>643.1</ele>
        <time>2020-11-20T16:19:43.256Z</time>
      </trkpt>
      <trkpt lat="45.2063" lon="5.72607">
        <ele>641.7</ele>
        <time>2020-11-20T16:19:44.156Z</time>
      </trkpt>
      <trkpt lat="45.20593" lon="5.72578">
        <ele>637.5</ele>
        <time>2020-11-20T16:19:49.567Z</time>
      </trkpt>
      <trkpt lat="45.20587" lon="5.72573">
        <ele>636.7</ele>
        <time>2020-11-20T16:19:50.458Z</time>
      </trkpt>
      <trkpt lat="45.20582" lon="5.72569">
        <ele>636.1</ele>
        <time>2020-11-20T16:19:51.192Z</time>
      </trkpt>
      <trkpt lat="45.20569" lon="5.72563">
        <ele>634.3</ele>
        <time>2020-11-20T16:19:52.942Z</time>
        <extensions>
          <visugpx:TrkExtension xmlns:visugpx="https://www.visugpx.com/editgpx/">
            <visugpx:node>57</visugpx:node>
            </visugpx:TrkExtension>
        </extensions>
      </trkpt>
      <trkpt lat="45.20568" lon="5.72562">
        <ele>634.2</ele>
        <time>2020-11-20T16:19:53.099Z</time>
      </trkpt>
      <trkpt lat="45.20556" lon="5.72559">
        <ele>632.6</ele>
        <time>2020-11-20T16:19:54.658Z</time>
      </trkpt>
      <trkpt lat="45.20545" lon="5.72559">
        <ele>631</ele>
        <time>2020-11-20T16:19:56.067Z</time>
      </trkpt>
      <trkpt lat="45.20537" lon="5.72562">
        <ele>629.5</ele>
        <time>2020-11-20T16:19:57.126Z</time>
      </trkpt>
      <trkpt lat="45.20534" lon="5.72564">
        <ele>628.8</ele>
        <time>2020-11-20T16:19:57.550Z</time>
      </trkpt>
      <trkpt lat="45.20531" lon="5.72567">
        <ele>627.9</ele>
        <time>2020-11-20T16:19:58.020Z</time>
      </trkpt>
      <trkpt lat="45.20521" lon="5.72575">
        <ele>625.2</ele>
        <time>2020-11-20T16:19:59.489Z</time>
      </trkpt>
      <trkpt lat="45.20512" lon="5.72578">
        <ele>623.1</ele>
        <time>2020-11-20T16:20:00.673Z</time>
      </trkpt>
      <trkpt lat="45.20502" lon="5.72576">
        <ele>621.7</ele>
        <time>2020-11-20T16:20:01.965Z</time>
      </trkpt>
      <trkpt lat="45.20495" lon="5.72573">
        <ele>620.7</ele>
        <time>2020-11-20T16:20:02.901Z</time>
      </trkpt>
      <trkpt lat="45.20489" lon="5.72568">
        <ele>620.3</ele>
        <time>2020-11-20T16:20:03.778Z</time>
      </trkpt>
      <trkpt lat="45.20486" lon="5.72566">
        <ele>620</ele>
        <time>2020-11-20T16:20:04.203Z</time>
      </trkpt>
      <trkpt lat="45.20475" lon="5.72554">
        <ele>619.9</ele>
        <time>2020-11-20T16:20:08.670Z</time>
      </trkpt>
      <trkpt lat="45.20456" lon="5.72523">
        <ele>622</ele>
        <time>2020-11-20T16:20:29.906Z</time>
      </trkpt>
      <trkpt lat="45.20448" lon="5.72514">
        <ele>622.2</ele>
        <time>2020-11-20T16:20:34.354Z</time>
      </trkpt>
      <trkpt lat="45.20445" lon="5.72513">
        <ele>621.8</ele>
        <time>2020-11-20T16:20:34.748Z</time>
      </trkpt>
      <trkpt lat="45.20441" lon="5.72517">
        <ele>620.2</ele>
        <time>2020-11-20T16:20:35.375Z</time>
      </trkpt>
      <trkpt lat="45.20441" lon="5.72525">
        <ele>618.5</ele>
        <time>2020-11-20T16:20:36.096Z</time>
      </trkpt>
      <trkpt lat="45.20444" lon="5.72539">
        <ele>616.3</ele>
        <time>2020-11-20T16:20:37.416Z</time>
      </trkpt>
      <trkpt lat="45.20478" lon="5.72607">
        <ele>606.6</ele>
        <time>2020-11-20T16:20:44.937Z</time>
      </trkpt>
      <trkpt lat="45.20496" lon="5.72623">
        <ele>605.6</ele>
        <time>2020-11-20T16:20:47.861Z</time>
      </trkpt>
      <trkpt lat="45.20514" lon="5.7263">
        <ele>608.4</ele>
        <time>2020-11-20T16:21:13.601Z</time>
      </trkpt>
      <trkpt lat="45.20526" lon="5.72643">
        <ele>608.3</ele>
        <time>2020-11-20T16:21:18.501Z</time>
      </trkpt>
      <trkpt lat="45.2053" lon="5.7265">
        <ele>607.7</ele>
        <time>2020-11-20T16:21:19.314Z</time>
        <extensions>
          <visugpx:TrkExtension xmlns:visugpx="https://www.visugpx.com/editgpx/">
            <visugpx:node>58</visugpx:node>
            </visugpx:TrkExtension>
        </extensions>
      </trkpt>
      <trkpt lat="45.20538" lon="5.72664">
        <ele>606.8</ele>
        <time>2020-11-20T16:21:20.940Z</time>
      </trkpt>
      <trkpt lat="45.2056" lon="5.72689">
        <ele>606</ele>
        <time>2020-11-20T16:21:25.596Z</time>
      </trkpt>
      <trkpt lat="45.20573" lon="5.72698">
        <ele>608.3</ele>
        <time>2020-11-20T16:21:45.544Z</time>
      </trkpt>
      <trkpt lat="45.20582" lon="5.72702">
        <ele>611</ele>
        <time>2020-11-20T16:21:58.550Z</time>
      </trkpt>
      <trkpt lat="45.20584" lon="5.72708">
        <ele>609.9</ele>
        <time>2020-11-20T16:21:59.149Z</time>
      </trkpt>
      <trkpt lat="45.20581" lon="5.72713">
        <ele>606.9</ele>
        <time>2020-11-20T16:21:59.741Z</time>
      </trkpt>
      <trkpt lat="45.20575" lon="5.72712">
        <ele>604.4</ele>
        <time>2020-11-20T16:22:00.515Z</time>
      </trkpt>
      <trkpt lat="45.20563" lon="5.72707">
        <ele>600.6</ele>
        <time>2020-11-20T16:22:02.116Z</time>
      </trkpt>
      <trkpt lat="45.20523" lon="5.72678">
        <ele>595.4</ele>
        <time>2020-11-20T16:22:07.865Z</time>
      </trkpt>
      <trkpt lat="45.20461" lon="5.72649">
        <ele>586.8</ele>
        <time>2020-11-20T16:22:16.222Z</time>
      </trkpt>
      <trkpt lat="45.20445" lon="5.72647">
        <ele>583</ele>
        <time>2020-11-20T16:22:18.278Z</time>
      </trkpt>
      <trkpt lat="45.20436" lon="5.7264">
        <ele>583.2</ele>
        <time>2020-11-20T16:22:22.745Z</time>
      </trkpt>
      <trkpt lat="45.20422" lon="5.72626">
        <ele>585</ele>
        <time>2020-11-20T16:22:39.502Z</time>
      </trkpt>
      <trkpt lat="45.20417" lon="5.72626">
        <ele>583.7</ele>
        <time>2020-11-20T16:22:40.142Z</time>
      </trkpt>
      <trkpt lat="45.20417" lon="5.72631">
        <ele>581.6</ele>
        <time>2020-11-20T16:22:40.593Z</time>
      </trkpt>
      <trkpt lat="45.20419" lon="5.72638">
        <ele>579.3</ele>
        <time>2020-11-20T16:22:41.274Z</time>
      </trkpt>
      <trkpt lat="45.20436" lon="5.72664">
        <ele>573.8</ele>
        <time>2020-11-20T16:22:44.474Z</time>
      </trkpt>
      <trkpt lat="45.20442" lon="5.72671">
        <ele>572.3</ele>
        <time>2020-11-20T16:22:45.468Z</time>
      </trkpt>
      <trkpt lat="45.20454" lon="5.72676">
        <ele>573.3</ele>
        <time>2020-11-20T16:22:55.197Z</time>
      </trkpt>
      <trkpt lat="45.20458" lon="5.72679">
        <ele>573</ele>
        <time>2020-11-20T16:22:55.729Z</time>
        <extensions>
          <visugpx:TrkExtension xmlns:visugpx="https://www.visugpx.com/editgpx/">
            <visugpx:node>59</visugpx:node>
            </visugpx:TrkExtension>
        </extensions>
      </trkpt>
      <trkpt lat="45.20462" lon="5.72683">
        <ele>572.1</ele>
        <time>2020-11-20T16:22:56.355Z</time>
      </trkpt>
      <trkpt lat="45.20512" lon="5.72731">
        <ele>565.7</ele>
        <time>2020-11-20T16:23:04.082Z</time>
      </trkpt>
      <trkpt lat="45.20525" lon="5.7274">
        <ele>568.3</ele>
        <time>2020-11-20T16:23:24.030Z</time>
      </trkpt>
      <trkpt lat="45.20526" lon="5.72745">
        <ele>566.6</ele>
        <time>2020-11-20T16:23:24.499Z</time>
      </trkpt>
      <trkpt lat="45.20526" lon="5.72748">
        <ele>565.2</ele>
        <time>2020-11-20T16:23:24.769Z</time>
      </trkpt>
      <trkpt lat="45.20525" lon="5.7275">
        <ele>563.8</ele>
        <time>2020-11-20T16:23:24.991Z</time>
      </trkpt>
      <trkpt lat="45.20521" lon="5.7275">
        <ele>561.6</ele>
        <time>2020-11-20T16:23:25.503Z</time>
      </trkpt>
      <trkpt lat="45.20496" lon="5.7273">
        <ele>558.8</ele>
        <time>2020-11-20T16:23:29.176Z</time>
      </trkpt>
      <trkpt lat="45.20464" lon="5.72718">
        <ele>554.5</ele>
        <time>2020-11-20T16:23:33.413Z</time>
      </trkpt>
      <trkpt lat="45.20448" lon="5.72716">
        <ele>550.4</ele>
        <time>2020-11-20T16:23:35.469Z</time>
      </trkpt>
      <trkpt lat="45.20423" lon="5.72705">
        <ele>548.3</ele>
        <time>2020-11-20T16:23:38.820Z</time>
      </trkpt>
      <trkpt lat="45.20415" lon="5.72699">
        <ele>548.8</ele>
        <time>2020-11-20T16:23:44.679Z</time>
      </trkpt>
      <trkpt lat="45.204" lon="5.72684">
        <ele>549.8</ele>
        <time>2020-11-20T16:23:56.499Z</time>
      </trkpt>
      <trkpt lat="45.20376" lon="5.72653">
        <ele>552</ele>
        <time>2020-11-20T16:24:19.465Z</time>
      </trkpt>
      <trkpt lat="45.20362" lon="5.7264">
        <ele>550.1</ele>
        <time>2020-11-20T16:24:21.607Z</time>
      </trkpt>
      <trkpt lat="45.20345" lon="5.72629">
        <ele>545.9</ele>
        <time>2020-11-20T16:24:23.999Z</time>
      </trkpt>
      <trkpt lat="45.20334" lon="5.72619">
        <ele>544.2</ele>
        <time>2020-11-20T16:24:25.671Z</time>
      </trkpt>
      <trkpt lat="45.20324" lon="5.72613">
        <ele>543.4</ele>
        <time>2020-11-20T16:24:27.061Z</time>
      </trkpt>
      <trkpt lat="45.203" lon="5.72607">
        <ele>538.6</ele>
        <time>2020-11-20T16:24:30.180Z</time>
      </trkpt>
      <trkpt lat="45.20283" lon="5.72605">
        <ele>534.3</ele>
        <time>2020-11-20T16:24:32.364Z</time>
      </trkpt>
      <trkpt lat="45.20254" lon="5.7261">
        <ele>523.4</ele>
        <time>2020-11-20T16:24:36.103Z</time>
      </trkpt>
      <trkpt lat="45.20249" lon="5.72609">
        <ele>522.3</ele>
        <time>2020-11-20T16:24:36.750Z</time>
        <extensions>
          <visugpx:TrkExtension xmlns:visugpx="https://www.visugpx.com/editgpx/">
            <visugpx:node>60</visugpx:node>
            </visugpx:TrkExtension>
        </extensions>
      </trkpt>
      <trkpt lat="45.20238" lon="5.72607">
        <ele>519.3</ele>
        <time>2020-11-20T16:24:38.169Z</time>
      </trkpt>
      <trkpt lat="45.20224" lon="5.726">
        <ele>517.3</ele>
        <time>2020-11-20T16:24:40.069Z</time>
      </trkpt>
      <trkpt lat="45.20194" lon="5.72581">
        <ele>513.8</ele>
        <time>2020-11-20T16:24:44.275Z</time>
      </trkpt>
      <trkpt lat="45.20162" lon="5.7256">
        <ele>507</ele>
        <time>2020-11-20T16:24:48.788Z</time>
      </trkpt>
      <trkpt lat="45.20112" lon="5.72544">
        <ele>495.1</ele>
        <time>2020-11-20T16:24:55.349Z</time>
      </trkpt>
      <trkpt lat="45.20109" lon="5.72543">
        <ele>494.3</ele>
        <time>2020-11-20T16:24:55.743Z</time>
      </trkpt>
      <trkpt lat="45.20101" lon="5.72542">
        <ele>492</ele>
        <time>2020-11-20T16:24:56.771Z</time>
      </trkpt>
      <trkpt lat="45.20077" lon="5.72544">
        <ele>485.9</ele>
        <time>2020-11-20T16:24:59.849Z</time>
      </trkpt>
      <trkpt lat="45.2007" lon="5.72531">
        <ele>486.9</ele>
        <time>2020-11-20T16:25:09.342Z</time>
      </trkpt>
      <trkpt lat="45.20068" lon="5.72523">
        <ele>487.6</ele>
        <time>2020-11-20T16:25:16.010Z</time>
      </trkpt>
      <trkpt lat="45.20068" lon="5.72515">
        <ele>488.4</ele>
        <time>2020-11-20T16:25:23.784Z</time>
      </trkpt>
      <trkpt lat="45.20074" lon="5.72482">
        <ele>487.9</ele>
        <time>2020-11-20T16:25:28.100Z</time>
      </trkpt>
      <trkpt lat="45.20074" lon="5.72466">
        <ele>485.7</ele>
        <time>2020-11-20T16:25:29.543Z</time>
      </trkpt>
      <trkpt lat="45.20073" lon="5.72456">
        <ele>484.2</ele>
        <time>2020-11-20T16:25:30.454Z</time>
      </trkpt>
      <trkpt lat="45.20071" lon="5.72445">
        <ele>482.3</ele>
        <time>2020-11-20T16:25:31.479Z</time>
      </trkpt>
      <trkpt lat="45.20068" lon="5.7244">
        <ele>481.1</ele>
        <time>2020-11-20T16:25:32.071Z</time>
      </trkpt>
      <trkpt lat="45.20063" lon="5.72434">
        <ele>479.3</ele>
        <time>2020-11-20T16:25:32.909Z</time>
      </trkpt>
      <trkpt lat="45.20055" lon="5.7243">
        <ele>477.1</ele>
        <time>2020-11-20T16:25:33.995Z</time>
      </trkpt>
      <trkpt lat="45.20036" lon="5.72428">
        <ele>473.1</ele>
        <time>2020-11-20T16:25:36.434Z</time>
      </trkpt>
      <trkpt lat="45.20011" lon="5.72426">
        <ele>467.7</ele>
        <time>2020-11-20T16:25:39.639Z</time>
      </trkpt>
      <trkpt lat="45.19966" lon="5.72422">
        <ele>467.1</ele>
        <time>2020-11-20T16:25:48.517Z</time>
      </trkpt>
      <trkpt lat="45.19947" lon="5.72422">
        <ele>468.5</ele>
        <time>2020-11-20T16:26:02.578Z</time>
        <extensions>
          <visugpx:TrkExtension xmlns:visugpx="https://www.visugpx.com/editgpx/">
            <visugpx:node>61</visugpx:node>
            </visugpx:TrkExtension>
        </extensions>
      </trkpt>
      <trkpt lat="45.19937" lon="5.72422">
        <ele>469.3</ele>
        <time>2020-11-20T16:26:10.360Z</time>
      </trkpt>
      <trkpt lat="45.19897" lon="5.72436">
        <ele>467.9</ele>
        <time>2020-11-20T16:26:16.782Z</time>
      </trkpt>
      <trkpt lat="45.19894" lon="5.72438">
        <ele>467.5</ele>
        <time>2020-11-20T16:26:17.207Z</time>
      </trkpt>
      <trkpt lat="45.1989" lon="5.72448">
        <ele>468</ele>
        <time>2020-11-20T16:26:22.693Z</time>
      </trkpt>
      <trkpt lat="45.19889" lon="5.72454">
        <ele>468.7</ele>
        <time>2020-11-20T16:26:28.685Z</time>
      </trkpt>
      <trkpt lat="45.19888" lon="5.72456">
        <ele>468.7</ele>
        <time>2020-11-20T16:26:29.303Z</time>
      </trkpt>
      <trkpt lat="45.19888" lon="5.7246">
        <ele>469.4</ele>
        <time>2020-11-20T16:26:33.190Z</time>
      </trkpt>
      <trkpt lat="45.19887" lon="5.7247">
        <ele>470.7</ele>
        <time>2020-11-20T16:26:43.006Z</time>
      </trkpt>
      <trkpt lat="45.19886" lon="5.72475">
        <ele>471.2</ele>
        <time>2020-11-20T16:26:48.057Z</time>
      </trkpt>
      <trkpt lat="45.19877" lon="5.7248">
        <ele>469.4</ele>
        <time>2020-11-20T16:26:49.294Z</time>
      </trkpt>
      <trkpt lat="45.19867" lon="5.72484">
        <ele>467.2</ele>
        <time>2020-11-20T16:26:50.624Z</time>
      </trkpt>
      <trkpt lat="45.19856" lon="5.72492">
        <ele>465.3</ele>
        <time>2020-11-20T16:26:52.206Z</time>
      </trkpt>
      <trkpt lat="45.19857" lon="5.72498">
        <ele>466.5</ele>
        <time>2020-11-20T16:26:58.198Z</time>
      </trkpt>
      <trkpt lat="45.19857" lon="5.72514">
        <ele>465.8</ele>
        <time>2020-11-20T16:26:59.568Z</time>
      </trkpt>
      <trkpt lat="45.19859" lon="5.72552">
        <ele>463.7</ele>
        <time>2020-11-20T16:27:03.005Z</time>
      </trkpt>
      <trkpt lat="45.19858" lon="5.72557">
        <ele>463.1</ele>
        <time>2020-11-20T16:27:03.474Z</time>
      </trkpt>
      <trkpt lat="45.19855" lon="5.72556">
        <ele>462.4</ele>
        <time>2020-11-20T16:27:03.868Z</time>
      </trkpt>
      <trkpt lat="45.19855" lon="5.72547">
        <ele>463</ele>
        <time>2020-11-20T16:27:09.471Z</time>
        <extensions>
          <visugpx:TrkExtension xmlns:visugpx="https://www.visugpx.com/editgpx/">
            <visugpx:node>62</visugpx:node>
            </visugpx:TrkExtension>
        </extensions>
      </trkpt>
      <trkpt lat="45.19852" lon="5.72507">
        <ele>464.9</ele>
        <time>2020-11-20T16:27:29.418Z</time>
      </trkpt>
      <trkpt lat="45.19849" lon="5.72465">
        <ele>459.3</ele>
        <time>2020-11-20T16:27:33.226Z</time>
      </trkpt>
      <trkpt lat="45.19849" lon="5.7245">
        <ele>457.1</ele>
        <time>2020-11-20T16:27:34.579Z</time>
      </trkpt>
      <trkpt lat="45.19848" lon="5.72448">
        <ele>456.5</ele>
        <time>2020-11-20T16:27:34.800Z</time>
        <extensions>
          <visugpx:TrkExtension xmlns:visugpx="https://www.visugpx.com/editgpx/">
            <visugpx:node>63</visugpx:node>
            </visugpx:TrkExtension>
        </extensions>
      </trkpt>
      <trkpt lat="45.19847" lon="5.72445">
        <ele>455.8</ele>
        <time>2020-11-20T16:27:35.100Z</time>
      </trkpt>
      <trkpt lat="45.19845" lon="5.72442">
        <ele>454.8</ele>
        <time>2020-11-20T16:27:35.472Z</time>
      </trkpt>
      <trkpt lat="45.19843" lon="5.72442">
        <ele>454.3</ele>
        <time>2020-11-20T16:27:35.728Z</time>
      </trkpt>
      <trkpt lat="45.19838" lon="5.72446">
        <ele>453.5</ele>
        <time>2020-11-20T16:27:36.463Z</time>
      </trkpt>
      <trkpt lat="45.19834" lon="5.72458">
        <ele>454.1</ele>
        <time>2020-11-20T16:27:42.908Z</time>
      </trkpt>
      <trkpt lat="45.19833" lon="5.72462">
        <ele>454.3</ele>
        <time>2020-11-20T16:27:45.011Z</time>
      </trkpt>
      <trkpt lat="45.19831" lon="5.72478">
        <ele>455.3</ele>
        <time>2020-11-20T16:27:54.488Z</time>
      </trkpt>
      <trkpt lat="45.19823" lon="5.72516">
        <ele>452.4</ele>
        <time>2020-11-20T16:27:58.065Z</time>
      </trkpt>
      <trkpt lat="45.19822" lon="5.72545">
        <ele>450.7</ele>
        <time>2020-11-20T16:28:00.684Z</time>
      </trkpt>
      <trkpt lat="45.19823" lon="5.72585">
        <ele>449.7</ele>
        <time>2020-11-20T16:28:05.017Z</time>
      </trkpt>
      <trkpt lat="45.19823" lon="5.72586">
        <ele>449.5</ele>
        <time>2020-11-20T16:28:05.107Z</time>
        <extensions>
          <visugpx:TrkExtension xmlns:visugpx="https://www.visugpx.com/editgpx/">
            <visugpx:node>64</visugpx:node>
            </visugpx:TrkExtension>
        </extensions>
      </trkpt>
      <trkpt lat="45.19827" lon="5.72609">
        <ele>447.8</ele>
        <time>2020-11-20T16:28:07.244Z</time>
      </trkpt>
      <trkpt lat="45.19833" lon="5.72633">
        <ele>447.1</ele>
        <time>2020-11-20T16:28:09.906Z</time>
      </trkpt>
      <trkpt lat="45.19834" lon="5.72635">
        <ele>447.1</ele>
        <time>2020-11-20T16:28:10.524Z</time>
      </trkpt>
      <trkpt lat="45.19844" lon="5.72659">
        <ele>446.1</ele>
        <time>2020-11-20T16:28:13.141Z</time>
      </trkpt>
      <trkpt lat="45.19845" lon="5.72662">
        <ele>445.9</ele>
        <time>2020-11-20T16:28:13.440Z</time>
      </trkpt>
      <trkpt lat="45.19861" lon="5.72685">
        <ele>443.1</ele>
        <time>2020-11-20T16:28:16.355Z</time>
      </trkpt>
      <trkpt lat="45.19862" lon="5.72688">
        <ele>442.3</ele>
        <time>2020-11-20T16:28:16.655Z</time>
      </trkpt>
      <trkpt lat="45.19859" lon="5.72691">
        <ele>440.4</ele>
        <time>2020-11-20T16:28:17.124Z</time>
      </trkpt>
      <trkpt lat="45.19828" lon="5.72655">
        <ele>441.1</ele>
        <time>2020-11-20T16:28:34.176Z</time>
      </trkpt>
      <trkpt lat="45.19814" lon="5.72643">
        <ele>435.8</ele>
        <time>2020-11-20T16:28:36.270Z</time>
      </trkpt>
      <trkpt lat="45.19793" lon="5.72622">
        <ele>428.7</ele>
        <time>2020-11-20T16:28:39.559Z</time>
      </trkpt>
      <trkpt lat="45.19789" lon="5.72614">
        <ele>428</ele>
        <time>2020-11-20T16:28:40.443Z</time>
      </trkpt>
      <trkpt lat="45.19787" lon="5.72601">
        <ele>429.2</ele>
        <time>2020-11-20T16:28:52.430Z</time>
        <extensions>
          <visugpx:TrkExtension xmlns:visugpx="https://www.visugpx.com/editgpx/">
            <visugpx:node>65</visugpx:node>
            </visugpx:TrkExtension>
        </extensions>
      </trkpt>
      <trkpt lat="45.19787" lon="5.72596">
        <ele>430.1</ele>
        <time>2020-11-20T16:28:57.289Z</time>
      </trkpt>
      <trkpt lat="45.1979" lon="5.72537">
        <ele>431.8</ele>
        <time>2020-11-20T16:29:21.081Z</time>
      </trkpt>
      <trkpt lat="45.19789" lon="5.72529">
        <ele>430.9</ele>
        <time>2020-11-20T16:29:21.814Z</time>
      </trkpt>
      <trkpt lat="45.19788" lon="5.72527">
        <ele>430.2</ele>
        <time>2020-11-20T16:29:22.035Z</time>
      </trkpt>
      <trkpt lat="45.19785" lon="5.72528">
        <ele>428.4</ele>
        <time>2020-11-20T16:29:22.430Z</time>
      </trkpt>
      <trkpt lat="45.1978" lon="5.7254">
        <ele>426</ele>
        <time>2020-11-20T16:29:23.687Z</time>
      </trkpt>
      <trkpt lat="45.19771" lon="5.72584">
        <ele>424.2</ele>
        <time>2020-11-20T16:29:27.815Z</time>
      </trkpt>
      <trkpt lat="45.19768" lon="5.72586">
        <ele>422.4</ele>
        <time>2020-11-20T16:29:28.239Z</time>
      </trkpt>
      <trkpt lat="45.19766" lon="5.72583">
        <ele>421.8</ele>
        <time>2020-11-20T16:29:28.612Z</time>
      </trkpt>
      <trkpt lat="45.19764" lon="5.72549">
        <ele>417.5</ele>
        <time>2020-11-20T16:29:31.689Z</time>
      </trkpt>
      <trkpt lat="45.19764" lon="5.72545">
        <ele>417.1</ele>
        <time>2020-11-20T16:29:32.050Z</time>
        <extensions>
          <visugpx:TrkExtension xmlns:visugpx="https://www.visugpx.com/editgpx/">
            <visugpx:node>66</visugpx:node>
            </visugpx:TrkExtension>
        </extensions>
      </trkpt>
      <trkpt lat="45.19765" lon="5.72529">
        <ele>416.1</ele>
        <time>2020-11-20T16:29:33.499Z</time>
      </trkpt>
      <trkpt lat="45.19775" lon="5.72503">
        <ele>420.3</ele>
        <time>2020-11-20T16:30:02.285Z</time>
      </trkpt>
      <trkpt lat="45.19772" lon="5.72503">
        <ele>418.3</ele>
        <time>2020-11-20T16:30:02.669Z</time>
      </trkpt>
      <trkpt lat="45.19757" lon="5.72517">
        <ele>409.8</ele>
        <time>2020-11-20T16:30:04.968Z</time>
      </trkpt>
      <trkpt lat="45.19752" lon="5.72526">
        <ele>407.7</ele>
        <time>2020-11-20T16:30:06.001Z</time>
      </trkpt>
      <trkpt lat="45.1975" lon="5.72536">
        <ele>407.8</ele>
        <time>2020-11-20T16:30:08.995Z</time>
      </trkpt>
      <trkpt lat="45.19745" lon="5.72536">
        <ele>405.5</ele>
        <time>2020-11-20T16:30:09.635Z</time>
      </trkpt>
      <trkpt lat="45.19744" lon="5.72556">
        <ele>407.5</ele>
        <time>2020-11-20T16:30:29.120Z</time>
      </trkpt>
      <trkpt lat="45.19744" lon="5.72575">
        <ele>409.9</ele>
        <time>2020-11-20T16:30:47.585Z</time>
        <extensions>
          <visugpx:TrkExtension xmlns:visugpx="https://www.visugpx.com/editgpx/">
            <visugpx:node>67</visugpx:node>
            </visugpx:TrkExtension>
        </extensions>
      </trkpt>
      <trkpt lat="45.19744" lon="5.7259">
        <ele>409.6</ele>
        <time>2020-11-20T16:30:49.332Z</time>
      </trkpt>
      <trkpt lat="45.19758" lon="5.72623">
        <ele>410.9</ele>
        <time>2020-11-20T16:31:06.071Z</time>
      </trkpt>
      <trkpt lat="45.19765" lon="5.7265">
        <ele>409.7</ele>
        <time>2020-11-20T16:31:08.591Z</time>
      </trkpt>
      <trkpt lat="45.19779" lon="5.72671">
        <ele>412</ele>
        <time>2020-11-20T16:31:30.257Z</time>
      </trkpt>
      <trkpt lat="45.19799" lon="5.72691">
        <ele>414.3</ele>
        <time>2020-11-20T16:31:51.751Z</time>
      </trkpt>
      <trkpt lat="45.19827" lon="5.72715">
        <ele>421.3</ele>
        <time>2020-11-20T16:32:36.864Z</time>
        <extensions>
          <visugpx:TrkExtension xmlns:visugpx="https://www.visugpx.com/editgpx/">
            <visugpx:node>68</visugpx:node>
            </visugpx:TrkExtension>
        </extensions>
      </trkpt>
      <trkpt lat="45.19832" lon="5.7272">
        <ele>422.6</ele>
        <time>2020-11-20T16:32:45.300Z</time>
      </trkpt>
      <trkpt lat="45.19835" lon="5.72727">
        <ele>421.4</ele>
        <time>2020-11-20T16:32:46.039Z</time>
      </trkpt>
      <trkpt lat="45.19835" lon="5.7274">
        <ele>416.9</ele>
        <time>2020-11-20T16:32:47.212Z</time>
      </trkpt>
      <trkpt lat="45.19842" lon="5.72749">
        <ele>415.5</ele>
        <time>2020-11-20T16:32:48.421Z</time>
      </trkpt>
      <trkpt lat="45.19843" lon="5.72743">
        <ele>417.9</ele>
        <time>2020-11-20T16:32:54.413Z</time>
      </trkpt>
      <trkpt lat="45.19844" lon="5.72741">
        <ele>418.8</ele>
        <time>2020-11-20T16:32:56.796Z</time>
      </trkpt>
      <trkpt lat="45.19847" lon="5.72737">
        <ele>421</ele>
        <time>2020-11-20T16:33:02.473Z</time>
      </trkpt>
      <trkpt lat="45.19848" lon="5.72736">
        <ele>421.6</ele>
        <time>2020-11-20T16:33:04.160Z</time>
      </trkpt>
      <trkpt lat="45.1985" lon="5.72734">
        <ele>422.8</ele>
        <time>2020-11-20T16:33:07.535Z</time>
      </trkpt>
      <trkpt lat="45.19851" lon="5.72735">
        <ele>422.7</ele>
        <time>2020-11-20T16:33:07.691Z</time>
      </trkpt>
      <trkpt lat="45.19853" lon="5.72736">
        <ele>422.9</ele>
        <time>2020-11-20T16:33:09.559Z</time>
      </trkpt>
      <trkpt lat="45.19856" lon="5.72737">
        <ele>423.3</ele>
        <time>2020-11-20T16:33:13.597Z</time>
      </trkpt>
      <trkpt lat="45.19858" lon="5.72741">
        <ele>422.4</ele>
        <time>2020-11-20T16:33:14.040Z</time>
      </trkpt>
      <trkpt lat="45.19857" lon="5.72758">
        <ele>413.8</ele>
        <time>2020-11-20T16:33:15.579Z</time>
      </trkpt>
      <trkpt lat="45.19857" lon="5.72759">
        <ele>413.1</ele>
        <time>2020-11-20T16:33:15.669Z</time>
      </trkpt>
      <trkpt lat="45.19857" lon="5.72762">
        <ele>411.1</ele>
        <time>2020-11-20T16:33:15.939Z</time>
      </trkpt>
      <trkpt lat="45.19856" lon="5.72762">
        <ele>410.9</ele>
        <time>2020-11-20T16:33:16.067Z</time>
      </trkpt>
      <trkpt lat="45.19856" lon="5.72754">
        <ele>416.1</ele>
        <time>2020-11-20T16:33:23.842Z</time>
      </trkpt>
      <trkpt lat="45.19854" lon="5.72754">
        <ele>415.6</ele>
        <time>2020-11-20T16:33:24.098Z</time>
      </trkpt>
      <trkpt lat="45.19854" lon="5.7276">
        <ele>411.7</ele>
        <time>2020-11-20T16:33:24.639Z</time>
      </trkpt>
      <trkpt lat="45.19853" lon="5.72762">
        <ele>410.1</ele>
        <time>2020-11-20T16:33:24.860Z</time>
      </trkpt>
      <trkpt lat="45.19854" lon="5.72763">
        <ele>409.7</ele>
        <time>2020-11-20T16:33:25.017Z</time>
      </trkpt>
      <trkpt lat="45.19857" lon="5.72767">
        <ele>407.9</ele>
        <time>2020-11-20T16:33:25.544Z</time>
      </trkpt>
      <trkpt lat="45.1986" lon="5.72771">
        <ele>406.1</ele>
        <time>2020-11-20T16:33:26.071Z</time>
      </trkpt>
      <trkpt lat="45.1986" lon="5.72772">
        <ele>405.4</ele>
        <time>2020-11-20T16:33:26.161Z</time>
      </trkpt>
      <trkpt lat="45.19859" lon="5.72773">
        <ele>404.5</ele>
        <time>2020-11-20T16:33:26.318Z</time>
      </trkpt>
      <trkpt lat="45.19856" lon="5.72769">
        <ele>406.3</ele>
        <time>2020-11-20T16:33:31.995Z</time>
      </trkpt>
      <trkpt lat="45.19855" lon="5.7277">
        <ele>405.4</ele>
        <time>2020-11-20T16:33:32.151Z</time>
      </trkpt>
      <trkpt lat="45.19855" lon="5.7277">
        <ele>405.4</ele>
        <time>2020-11-20T16:33:32.151Z</time>
      </trkpt>
      <trkpt lat="45.19858" lon="5.72773">
        <ele>404.3</ele>
        <time>2020-11-20T16:33:32.621Z</time>
      </trkpt>
      <trkpt lat="45.19857" lon="5.72775">
        <ele>402.7</ele>
        <time>2020-11-20T16:33:32.842Z</time>
      </trkpt>
      <trkpt lat="45.1985" lon="5.72766">
        <ele>406.7</ele>
        <time>2020-11-20T16:33:45.869Z</time>
      </trkpt>
      <trkpt lat="45.19848" lon="5.72767">
        <ele>405.5</ele>
        <time>2020-11-20T16:33:46.141Z</time>
      </trkpt>
      <trkpt lat="45.19848" lon="5.72768">
        <ele>404.8</ele>
        <time>2020-11-20T16:33:46.231Z</time>
      </trkpt>
      <trkpt lat="45.19853" lon="5.72775">
        <ele>401.6</ele>
        <time>2020-11-20T16:33:47.130Z</time>
      </trkpt>
      <trkpt lat="45.19854" lon="5.72779">
        <ele>399.2</ele>
        <time>2020-11-20T16:33:47.513Z</time>
      </trkpt>
      <trkpt lat="45.19853" lon="5.72781">
        <ele>397.7</ele>
        <time>2020-11-20T16:33:47.734Z</time>
      </trkpt>
      <trkpt lat="45.19824" lon="5.72759">
        <ele>401</ele>
        <time>2020-11-20T16:34:18.416Z</time>
      </trkpt>
      <trkpt lat="45.19818" lon="5.72754">
        <ele>400.2</ele>
        <time>2020-11-20T16:34:19.306Z</time>
      </trkpt>
      <trkpt lat="45.19808" lon="5.72744">
        <ele>398.3</ele>
        <time>2020-11-20T16:34:20.872Z</time>
      </trkpt>
      <trkpt lat="45.19801" lon="5.72736">
        <ele>397</ele>
        <time>2020-11-20T16:34:22.023Z</time>
      </trkpt>
      <trkpt lat="45.19794" lon="5.72731">
        <ele>394.6</ele>
        <time>2020-11-20T16:34:23.026Z</time>
      </trkpt>
      <trkpt lat="45.19791" lon="5.72734">
        <ele>391.4</ele>
        <time>2020-11-20T16:34:23.496Z</time>
      </trkpt>
      <trkpt lat="45.19792" lon="5.72737">
        <ele>390.8</ele>
        <time>2020-11-20T16:34:23.795Z</time>
      </trkpt>
      <trkpt lat="45.19797" lon="5.72743">
        <ele>391.5</ele>
        <time>2020-11-20T16:34:30.323Z</time>
        <extensions>
          <visugpx:TrkExtension xmlns:visugpx="https://www.visugpx.com/editgpx/">
            <visugpx:node>69</visugpx:node>
            </visugpx:TrkExtension>
        </extensions>
      </trkpt>
      <trkpt lat="45.19822" lon="5.72778">
        <ele>387.6</ele>
        <time>2020-11-20T16:34:34.818Z</time>
      </trkpt>
      <trkpt lat="45.19846" lon="5.72802">
        <ele>381.8</ele>
        <time>2020-11-20T16:34:38.576Z</time>
      </trkpt>
      <trkpt lat="45.19845" lon="5.72804">
        <ele>380.2</ele>
        <time>2020-11-20T16:34:38.798Z</time>
      </trkpt>
      <trkpt lat="45.19843" lon="5.72804">
        <ele>379.6</ele>
        <time>2020-11-20T16:34:39.054Z</time>
      </trkpt>
      <trkpt lat="45.198" lon="5.72775">
        <ele>376.6</ele>
        <time>2020-11-20T16:34:44.796Z</time>
      </trkpt>
      <trkpt lat="45.19798" lon="5.72776">
        <ele>374.8</ele>
        <time>2020-11-20T16:34:45.067Z</time>
      </trkpt>
      <trkpt lat="45.19798" lon="5.7278">
        <ele>372.6</ele>
        <time>2020-11-20T16:34:45.428Z</time>
      </trkpt>
      <trkpt lat="45.19804" lon="5.72785">
        <ele>373.2</ele>
        <time>2020-11-20T16:34:51.132Z</time>
        <extensions>
          <visugpx:TrkExtension xmlns:visugpx="https://www.visugpx.com/editgpx/">
            <visugpx:node>70</visugpx:node>
            </visugpx:TrkExtension>
        </extensions>
      </trkpt>
      <trkpt lat="45.19823" lon="5.72802">
        <ele>372.9</ele>
        <time>2020-11-20T16:34:55.552Z</time>
      </trkpt>
      <trkpt lat="45.19846" lon="5.72826">
        <ele>366</ele>
        <time>2020-11-20T16:34:59.207Z</time>
      </trkpt>
      <trkpt lat="45.19847" lon="5.7283">
        <ele>363.6</ele>
        <time>2020-11-20T16:34:59.589Z</time>
      </trkpt>
      <trkpt lat="45.19844" lon="5.72831">
        <ele>362</ele>
        <time>2020-11-20T16:34:59.984Z</time>
      </trkpt>
      <trkpt lat="45.19819" lon="5.72813">
        <ele>364</ele>
        <time>2020-11-20T16:35:20.360Z</time>
      </trkpt>
      <trkpt lat="45.19816" lon="5.72813">
        <ele>362.6</ele>
        <time>2020-11-20T16:35:20.744Z</time>
      </trkpt>
      <trkpt lat="45.19817" lon="5.72818">
        <ele>360</ele>
        <time>2020-11-20T16:35:21.213Z</time>
      </trkpt>
      <trkpt lat="45.19835" lon="5.72832">
        <ele>358.4</ele>
        <time>2020-11-20T16:35:23.841Z</time>
      </trkpt>
      <trkpt lat="45.19835" lon="5.72834">
        <ele>357.2</ele>
        <time>2020-11-20T16:35:24.021Z</time>
      </trkpt>
      <trkpt lat="45.19834" lon="5.72836">
        <ele>355.9</ele>
        <time>2020-11-20T16:35:24.242Z</time>
      </trkpt>
      <trkpt lat="45.19816" lon="5.72828">
        <ele>353.4</ele>
        <time>2020-11-20T16:35:26.657Z</time>
      </trkpt>
      <trkpt lat="45.19792" lon="5.7281">
        <ele>353.1</ele>
        <time>2020-11-20T16:35:32.160Z</time>
      </trkpt>
      <trkpt lat="45.19791" lon="5.72811">
        <ele>352.1</ele>
        <time>2020-11-20T16:35:32.316Z</time>
        <extensions>
          <visugpx:TrkExtension xmlns:visugpx="https://www.visugpx.com/editgpx/">
            <visugpx:node>71</visugpx:node>
            </visugpx:TrkExtension>
        </extensions>
      </trkpt>
      <trkpt lat="45.19793" lon="5.72815">
        <ele>350.9</ele>
        <time>2020-11-20T16:35:32.759Z</time>
      </trkpt>
      <trkpt lat="45.19826" lon="5.72846">
        <ele>348.1</ele>
        <time>2020-11-20T16:35:37.825Z</time>
      </trkpt>
      <trkpt lat="45.19826" lon="5.72848">
        <ele>347.2</ele>
        <time>2020-11-20T16:35:38.005Z</time>
      </trkpt>
      <trkpt lat="45.19825" lon="5.72848">
        <ele>346.8</ele>
        <time>2020-11-20T16:35:38.133Z</time>
      </trkpt>
      <trkpt lat="45.19823" lon="5.72848">
        <ele>346.1</ele>
        <time>2020-11-20T16:35:38.389Z</time>
      </trkpt>
      <trkpt lat="45.19797" lon="5.72832">
        <ele>343.3</ele>
        <time>2020-11-20T16:35:42.017Z</time>
      </trkpt>
      <trkpt lat="45.19784" lon="5.72824">
        <ele>342.2</ele>
        <time>2020-11-20T16:35:43.831Z</time>
      </trkpt>
      <trkpt lat="45.19758" lon="5.72805">
        <ele>339.1</ele>
        <time>2020-11-20T16:35:47.574Z</time>
      </trkpt>
      <trkpt lat="45.19755" lon="5.72806">
        <ele>337.3</ele>
        <time>2020-11-20T16:35:47.969Z</time>
      </trkpt>
      <trkpt lat="45.19755" lon="5.72809">
        <ele>336</ele>
        <time>2020-11-20T16:35:48.239Z</time>
      </trkpt>
      <trkpt lat="45.19755" lon="5.72809">
        <ele>336</ele>
        <time>2020-11-20T16:35:48.239Z</time>
        <extensions>
          <visugpx:TrkExtension xmlns:visugpx="https://www.visugpx.com/editgpx/">
            <visugpx:node>72</visugpx:node>
            </visugpx:TrkExtension>
        </extensions>
      </trkpt>
      <trkpt lat="45.19755" lon="5.72809">
        <ele>336</ele>
        <time>2020-11-20T16:35:48.239Z</time>
      </trkpt>
      <trkpt lat="45.19812" lon="5.7288">
        <ele>328.5</ele>
        <time>2020-11-20T16:35:57.948Z</time>
      </trkpt>
      <trkpt lat="45.19812" lon="5.72882">
        <ele>327.6</ele>
        <time>2020-11-20T16:35:58.128Z</time>
      </trkpt>
      <trkpt lat="45.19811" lon="5.72883">
        <ele>326.9</ele>
        <time>2020-11-20T16:35:58.285Z</time>
      </trkpt>
      <trkpt lat="45.19763" lon="5.72852">
        <ele>323.7</ele>
        <time>2020-11-20T16:36:04.763Z</time>
      </trkpt>
      <trkpt lat="45.19751" lon="5.72842">
        <ele>322.2</ele>
        <time>2020-11-20T16:36:06.544Z</time>
      </trkpt>
      <trkpt lat="45.19744" lon="5.72841">
        <ele>319.5</ele>
        <time>2020-11-20T16:36:07.445Z</time>
      </trkpt>
      <trkpt lat="45.19744" lon="5.72845">
        <ele>318.4</ele>
        <time>2020-11-20T16:36:07.806Z</time>
      </trkpt>
      <trkpt lat="45.19748" lon="5.7285">
        <ele>318.9</ele>
        <time>2020-11-20T16:36:12.480Z</time>
        <extensions>
          <visugpx:TrkExtension xmlns:visugpx="https://www.visugpx.com/editgpx/">
            <visugpx:node>73</visugpx:node>
            </visugpx:TrkExtension>
        </extensions>
      </trkpt>
      <trkpt lat="45.19797" lon="5.72916">
        <ele>310.6</ele>
        <time>2020-11-20T16:36:21.128Z</time>
      </trkpt>
      <trkpt lat="45.19798" lon="5.72918">
        <ele>309.9</ele>
        <time>2020-11-20T16:36:21.349Z</time>
      </trkpt>
      <trkpt lat="45.19797" lon="5.7292">
        <ele>308.8</ele>
        <time>2020-11-20T16:36:21.570Z</time>
      </trkpt>
      <trkpt lat="45.19795" lon="5.72921">
        <ele>308</ele>
        <time>2020-11-20T16:36:21.842Z</time>
      </trkpt>
      <trkpt lat="45.1972" lon="5.72872">
        <ele>300.8</ele>
        <time>2020-11-20T16:36:32.411Z</time>
      </trkpt>
      <trkpt lat="45.1971" lon="5.72865">
        <ele>298.2</ele>
        <time>2020-11-20T16:36:33.838Z</time>
      </trkpt>
      <trkpt lat="45.19697" lon="5.72852">
        <ele>296</ele>
        <time>2020-11-20T16:36:35.874Z</time>
      </trkpt>
      <trkpt lat="45.19694" lon="5.7285">
        <ele>295.2</ele>
        <time>2020-11-20T16:36:36.298Z</time>
      </trkpt>
      <trkpt lat="45.19692" lon="5.72852">
        <ele>293.8</ele>
        <time>2020-11-20T16:36:36.611Z</time>
      </trkpt>
      <trkpt lat="45.19685" lon="5.72846">
        <ele>292.4</ele>
        <time>2020-11-20T16:36:37.658Z</time>
      </trkpt>
      <trkpt lat="45.19672" lon="5.72833">
        <ele>290.4</ele>
        <time>2020-11-20T16:36:39.694Z</time>
      </trkpt>
      <trkpt lat="45.19664" lon="5.72828">
        <ele>288.5</ele>
        <time>2020-11-20T16:36:40.813Z</time>
      </trkpt>
      <trkpt lat="45.19607" lon="5.72806">
        <ele>272.2</ele>
        <time>2020-11-20T16:36:48.374Z</time>
        <extensions>
          <visugpx:TrkExtension xmlns:visugpx="https://www.visugpx.com/editgpx/">
            <visugpx:node>74</visugpx:node>
            </visugpx:TrkExtension>
        </extensions>
      </trkpt>
      <trkpt lat="45.19571" lon="5.72792">
        <ele>261</ele>
        <time>2020-11-20T16:36:53.153Z</time>
      </trkpt>
      <trkpt lat="45.19557" lon="5.72785">
        <ele>256.9</ele>
        <time>2020-11-20T16:36:55.053Z</time>
      </trkpt>
      <trkpt lat="45.19551" lon="5.72774">
        <ele>256.9</ele>
        <time>2020-11-20T16:36:58.558Z</time>
      </trkpt>
      <trkpt lat="45.19549" lon="5.72772">
        <ele>256.5</ele>
        <time>2020-11-20T16:36:58.871Z</time>
      </trkpt>
      <trkpt lat="45.19541" lon="5.72758">
        <ele>256.5</ele>
        <time>2020-11-20T16:37:03.412Z</time>
      </trkpt>
      <trkpt lat="45.19538" lon="5.72759">
        <ele>255</ele>
        <time>2020-11-20T16:37:03.807Z</time>
      </trkpt>
      <trkpt lat="45.19537" lon="5.72763">
        <ele>253.8</ele>
        <time>2020-11-20T16:37:04.190Z</time>
      </trkpt>
      <trkpt lat="45.19532" lon="5.72782">
        <ele>247.5</ele>
        <time>2020-11-20T16:37:06.019Z</time>
      </trkpt>
      <trkpt lat="45.19524" lon="5.72799">
        <ele>240.5</ele>
        <time>2020-11-20T16:37:07.863Z</time>
      </trkpt>
      <trkpt lat="45.19525" lon="5.72805">
        <ele>239.6</ele>
        <time>2020-11-20T16:37:08.419Z</time>
      </trkpt>
      <trkpt lat="45.19538" lon="5.72825">
        <ele>240.4</ele>
        <time>2020-11-20T16:37:19.516Z</time>
      </trkpt>
      <trkpt lat="45.19545" lon="5.72833">
        <ele>241.4</ele>
        <time>2020-11-20T16:37:28.903Z</time>
      </trkpt>
      <trkpt lat="45.19548" lon="5.7284">
        <ele>240.9</ele>
        <time>2020-11-20T16:37:29.642Z</time>
      </trkpt>
      <trkpt lat="45.19546" lon="5.72843">
        <ele>239.4</ele>
        <time>2020-11-20T16:37:30.015Z</time>
      </trkpt>
      <trkpt lat="45.19543" lon="5.72844">
        <ele>238.1</ele>
        <time>2020-11-20T16:37:30.409Z</time>
      </trkpt>
      <trkpt lat="45.19537" lon="5.72843">
        <ele>236</ele>
        <time>2020-11-20T16:37:31.183Z</time>
      </trkpt>
      <trkpt lat="45.19529" lon="5.7284">
        <ele>233.6</ele>
        <time>2020-11-20T16:37:32.242Z</time>
        <extensions>
          <visugpx:TrkExtension xmlns:visugpx="https://www.visugpx.com/editgpx/">
            <visugpx:node>76</visugpx:node>
            </visugpx:TrkExtension>
        </extensions>
      </trkpt>
      <trkpt lat="45.19525" lon="5.72839">
        <ele>232.2</ele>
        <time>2020-11-20T16:37:32.762Z</time>
      </trkpt>
      <trkpt lat="45.19521" lon="5.72841">
        <ele>230.3</ele>
        <time>2020-11-20T16:37:33.305Z</time>
      </trkpt>
      <trkpt lat="45.19517" lon="5.72836">
        <ele>229.5</ele>
        <time>2020-11-20T16:37:33.987Z</time>
      </trkpt>
      <trkpt lat="45.19516" lon="5.72834">
        <ele>229.4</ele>
        <time>2020-11-20T16:37:34.204Z</time>
      </trkpt>
      <trkpt lat="45.19514" lon="5.72837">
        <ele>228.2</ele>
        <time>2020-11-20T16:37:34.577Z</time>
      </trkpt>
      <trkpt lat="45.19508" lon="5.72837">
        <ele>225.8</ele>
        <time>2020-11-20T16:37:35.345Z</time>
      </trkpt>
      <trkpt lat="45.19506" lon="5.72841">
        <ele>224.5</ele>
        <time>2020-11-20T16:37:35.787Z</time>
      </trkpt>
      <trkpt lat="45.19505" lon="5.72849">
        <ele>223.1</ele>
        <time>2020-11-20T16:37:36.520Z</time>
      </trkpt>
      <trkpt lat="45.19499" lon="5.72853">
        <ele>220.8</ele>
        <time>2020-11-20T16:37:37.369Z</time>
      </trkpt>
      <trkpt lat="45.19502" lon="5.72855">
        <ele>221.4</ele>
        <time>2020-11-20T16:37:41.940Z</time>
        <extensions>
          <visugpx:TrkExtension xmlns:visugpx="https://www.visugpx.com/editgpx/">
            <visugpx:node>77</visugpx:node>
            </visugpx:TrkExtension>
        </extensions>
      </trkpt>
    </trkseg>
  </trk>
</gpx>